<?xml version="1.0" encoding="UTF-8" standalone="no" ?>
<gpx xmlns="http://www.topografix.com/GPX/1/1" xmlns:xsi="http://www.w3.org/2001/XMLSchema-instance" xsi:schemaLocation="http://www.topografix.com/GPX/1/1 http://www.topografix.com/GPX/1/1/gpx.xsd" version="1.1" creator="VisuGPX - https://www.visugpx.com">
  <metadata>
    <name>6-4 PM N106 à La Rochette</name>
  </metadata>
  <trk>
    <name><![CDATA[10824242-6-4 Finiels à La Rochette]]></name>
    <trkseg>
      <trkpt lat="44.40528" lon="3.56738">
        <ele>875</ele>
        <time>2020-01-04T20:38:50Z</time>
      </trkpt>
      <trkpt lat="44.40501" lon="3.5673">
        <ele>868</ele>
        <time>2020-01-04T20:38:57Z</time>
      </trkpt>
      <trkpt lat="44.40502" lon="3.56724">
        <ele>866</ele>
        <time>2020-01-04T20:38:58Z</time>
      </trkpt>
      <trkpt lat="44.40526" lon="3.56722">
        <ele>871</ele>
        <time>2020-01-04T20:39:03Z</time>
      </trkpt>
      <trkpt lat="44.40447" lon="3.56672">
        <ele>847</ele>
        <time>2020-01-04T20:39:23Z</time>
      </trkpt>
      <trkpt lat="44.40502" lon="3.56646">
        <ele>843</ele>
        <time>2020-01-04T20:39:37Z</time>
      </trkpt>
      <trkpt lat="44.40451" lon="3.56602">
        <ele>825</ele>
        <time>2020-01-04T20:39:51Z</time>
      </trkpt>
      <trkpt lat="44.40431" lon="3.56597">
        <ele>821</ele>
        <time>2020-01-04T20:39:56Z</time>
      </trkpt>
      <trkpt lat="44.40438" lon="3.56572">
        <ele>816</ele>
        <time>2020-01-04T20:40:00Z</time>
      </trkpt>
      <trkpt lat="44.40386" lon="3.56532">
        <ele>801</ele>
        <time>2020-01-04T20:40:14Z</time>
      </trkpt>
      <trkpt lat="44.4041" lon="3.56524">
        <ele>803</ele>
        <time>2020-01-04T20:40:20Z</time>
      </trkpt>
      <trkpt lat="44.40393" lon="3.56497">
        <ele>795</ele>
        <time>2020-01-04T20:40:26Z</time>
      </trkpt>
      <trkpt lat="44.40401" lon="3.56495">
        <ele>797</ele>
        <time>2020-01-04T20:40:28Z</time>
      </trkpt>
      <trkpt lat="44.40375" lon="3.56413">
        <ele>785</ele>
        <time>2020-01-04T20:40:43Z</time>
      </trkpt>
      <trkpt lat="44.40305" lon="3.56387">
        <ele>767</ele>
        <time>2020-01-04T20:41:00Z</time>
      </trkpt>
      <trkpt lat="44.40287" lon="3.56417">
        <ele>766</ele>
        <time>2020-01-04T20:41:06Z</time>
      </trkpt>
      <trkpt lat="44.40258" lon="3.56385">
        <ele>761</ele>
        <time>2020-01-04T20:41:15Z</time>
      </trkpt>
      <trkpt lat="44.40262" lon="3.56338">
        <ele>762</ele>
        <time>2020-01-04T20:41:23Z</time>
      </trkpt>
      <trkpt lat="44.40241" lon="3.56303">
        <ele>768</ele>
        <time>2020-01-04T20:41:30Z</time>
      </trkpt>
      <trkpt lat="44.40202" lon="3.5631">
        <ele>769</ele>
        <time>2020-01-04T20:41:39Z</time>
      </trkpt>
      <trkpt lat="44.40158" lon="3.56344">
        <ele>763</ele>
        <time>2020-01-04T20:41:51Z</time>
      </trkpt>
      <trkpt lat="44.40115" lon="3.56368">
        <ele>758</ele>
        <time>2020-01-04T20:42:02Z</time>
      </trkpt>
      <trkpt lat="44.4009" lon="3.56406">
        <ele>745</ele>
        <time>2020-01-04T20:42:11Z</time>
      </trkpt>
      <trkpt lat="44.40052" lon="3.56439">
        <ele>738</ele>
        <time>2020-01-04T20:42:21Z</time>
      </trkpt>
      <trkpt lat="44.40014" lon="3.56404">
        <ele>737</ele>
        <time>2020-01-04T20:42:32Z</time>
      </trkpt>
      <trkpt lat="44.39946" lon="3.56374">
        <ele>731</ele>
        <time>2020-01-04T20:42:48Z</time>
      </trkpt>
      <trkpt lat="44.39903" lon="3.56273">
        <ele>731</ele>
        <time>2020-01-04T20:43:08Z</time>
      </trkpt>
      <trkpt lat="44.39897" lon="3.56217">
        <ele>733</ele>
        <time>2020-01-04T20:43:17Z</time>
      </trkpt>
      <trkpt lat="44.39868" lon="3.56192">
        <ele>722</ele>
        <time>2020-01-04T20:43:25Z</time>
      </trkpt>
      <trkpt lat="44.3988" lon="3.56147">
        <ele>731</ele>
        <time>2020-01-04T20:43:33Z</time>
      </trkpt>
      <trkpt lat="44.39851" lon="3.5608">
        <ele>721</ele>
        <time>2020-01-04T20:43:46Z</time>
      </trkpt>
      <trkpt lat="44.39788" lon="3.55979">
        <ele>720</ele>
        <time>2020-01-04T20:44:09Z</time>
      </trkpt>
      <trkpt lat="44.39747" lon="3.55954">
        <ele>709</ele>
        <time>2020-01-04T20:44:19Z</time>
      </trkpt>
      <trkpt lat="44.39719" lon="3.559">
        <ele>713</ele>
        <time>2020-01-04T20:44:30Z</time>
      </trkpt>
      <trkpt lat="44.39696" lon="3.55881">
        <ele>707</ele>
        <time>2020-01-04T20:44:37Z</time>
      </trkpt>
      <trkpt lat="44.39632" lon="3.55806">
        <ele>690</ele>
        <time>2020-01-04T20:44:56Z</time>
      </trkpt>
      <trkpt lat="44.39666" lon="3.5573">
        <ele>693</ele>
        <time>2020-01-04T20:45:11Z</time>
      </trkpt>
      <trkpt lat="44.39683" lon="3.55672">
        <ele>687</ele>
        <time>2020-01-04T20:45:22Z</time>
      </trkpt>
      <trkpt lat="44.39724" lon="3.55634">
        <ele>695</ele>
        <time>2020-01-04T20:45:33Z</time>
      </trkpt>
      <trkpt lat="44.39756" lon="3.55544">
        <ele>688</ele>
        <time>2020-01-04T20:45:50Z</time>
      </trkpt>
      <trkpt lat="44.39821" lon="3.55458">
        <ele>691</ele>
        <time>2020-01-04T20:46:11Z</time>
      </trkpt>
      <trkpt lat="44.39816" lon="3.55426">
        <ele>690</ele>
        <time>2020-01-04T20:46:16Z</time>
      </trkpt>
      <trkpt lat="44.39834" lon="3.554">
        <ele>689</ele>
        <time>2020-01-04T20:46:22Z</time>
      </trkpt>
      <trkpt lat="44.3983" lon="3.55376">
        <ele>692</ele>
        <time>2020-01-04T20:46:26Z</time>
      </trkpt>
      <trkpt lat="44.39744" lon="3.55447">
        <ele>695</ele>
        <time>2020-01-04T20:46:50Z</time>
      </trkpt>
      <trkpt lat="44.39672" lon="3.55546">
        <ele>687</ele>
        <time>2020-01-04T20:47:13Z</time>
      </trkpt>
      <trkpt lat="44.39546" lon="3.55662">
        <ele>665</ele>
        <time>2020-01-04T20:47:48Z</time>
      </trkpt>
      <trkpt lat="44.39512" lon="3.55619">
        <ele>673</ele>
        <time>2020-01-04T20:47:59Z</time>
      </trkpt>
      <trkpt lat="44.39512" lon="3.55561">
        <ele>683</ele>
        <time>2020-01-04T20:48:09Z</time>
      </trkpt>
      <trkpt lat="44.39503" lon="3.55548">
        <ele>684</ele>
        <time>2020-01-04T20:48:12Z</time>
      </trkpt>
      <trkpt lat="44.39494" lon="3.55552">
        <ele>685</ele>
        <time>2020-01-04T20:48:14Z</time>
      </trkpt>
      <trkpt lat="44.39491" lon="3.55619">
        <ele>675</ele>
        <time>2020-01-04T20:48:25Z</time>
      </trkpt>
      <trkpt lat="44.39499" lon="3.55657">
        <ele>666</ele>
        <time>2020-01-04T20:48:32Z</time>
      </trkpt>
      <trkpt lat="44.39489" lon="3.55705">
        <ele>660</ele>
        <time>2020-01-04T20:48:40Z</time>
      </trkpt>
      <trkpt lat="44.39443" lon="3.55771">
        <ele>655</ele>
        <time>2020-01-04T20:48:56Z</time>
      </trkpt>
      <trkpt lat="44.39419" lon="3.55786">
        <ele>654</ele>
        <time>2020-01-04T20:49:02Z</time>
      </trkpt>
      <trkpt lat="44.39347" lon="3.55788">
        <ele>649</ele>
        <time>2020-01-04T20:49:19Z</time>
      </trkpt>
      <trkpt lat="44.39313" lon="3.5576">
        <ele>656</ele>
        <time>2020-01-04T20:49:28Z</time>
      </trkpt>
      <trkpt lat="44.39273" lon="3.55741">
        <ele>655</ele>
        <time>2020-01-04T20:49:38Z</time>
      </trkpt>
      <trkpt lat="44.39218" lon="3.5575">
        <ele>640</ele>
        <time>2020-01-04T20:49:51Z</time>
      </trkpt>
      <trkpt lat="44.3918" lon="3.55683">
        <ele>647</ele>
        <time>2020-01-04T20:50:05Z</time>
      </trkpt>
      <trkpt lat="44.39126" lon="3.55657">
        <ele>641</ele>
        <time>2020-01-04T20:50:18Z</time>
      </trkpt>
      <trkpt lat="44.39102" lon="3.55666">
        <ele>632</ele>
        <time>2020-01-04T20:50:24Z</time>
      </trkpt>
      <trkpt lat="44.39062" lon="3.55657">
        <ele>627</ele>
        <time>2020-01-04T20:50:33Z</time>
      </trkpt>
      <trkpt lat="44.39014" lon="3.55632">
        <ele>629</ele>
        <time>2020-01-04T20:50:45Z</time>
      </trkpt>
      <trkpt lat="44.38921" lon="3.5563">
        <ele>615</ele>
        <time>2020-01-04T20:51:07Z</time>
      </trkpt>
      <trkpt lat="44.39017" lon="3.55679">
        <ele>611</ele>
        <time>2020-01-04T20:51:31Z</time>
      </trkpt>
      <trkpt lat="44.38964" lon="3.5567">
        <ele>606</ele>
        <time>2020-01-04T20:51:43Z</time>
      </trkpt>
      <trkpt lat="44.38927" lon="3.55679">
        <ele>601</ele>
        <time>2020-01-04T20:51:52Z</time>
      </trkpt>
      <trkpt lat="44.38893" lon="3.55655">
        <ele>603</ele>
        <time>2020-01-04T20:52:01Z</time>
      </trkpt>
      <trkpt lat="44.38853" lon="3.55668">
        <ele>597</ele>
        <time>2020-01-04T20:52:11Z</time>
      </trkpt>
      <trkpt lat="44.38812" lon="3.55709">
        <ele>588</ele>
        <time>2020-01-04T20:52:22Z</time>
      </trkpt>
      <trkpt lat="44.3881" lon="3.55716">
        <ele>588</ele>
        <time>2020-01-04T20:52:24Z</time>
      </trkpt>
      <trkpt lat="44.38809" lon="3.5571">
        <ele>588</ele>
        <time>2020-01-04T20:52:25Z</time>
      </trkpt>
      <trkpt lat="44.38781" lon="3.55691">
        <ele>585</ele>
        <time>2020-01-04T20:52:32Z</time>
      </trkpt>
      <trkpt lat="44.38773" lon="3.55688">
        <ele>584</ele>
        <time>2020-01-04T20:52:34Z</time>
      </trkpt>
      <trkpt lat="44.38768" lon="3.55683">
        <ele>584</ele>
        <time>2020-01-04T20:52:35Z</time>
      </trkpt>
      <trkpt lat="44.38766" lon="3.55677">
        <ele>584</ele>
        <time>2020-01-04T20:52:36Z</time>
      </trkpt>
      <trkpt lat="44.38767" lon="3.55672">
        <ele>585</ele>
        <time>2020-01-04T20:52:37Z</time>
      </trkpt>
      <trkpt lat="44.38809" lon="3.5561">
        <ele>601</ele>
        <time>2020-01-04T20:52:52Z</time>
      </trkpt>
      <trkpt lat="44.38825" lon="3.55581">
        <ele>608</ele>
        <time>2020-01-04T20:52:58Z</time>
      </trkpt>
      <trkpt lat="44.38833" lon="3.55558">
        <ele>611</ele>
        <time>2020-01-04T20:53:02Z</time>
      </trkpt>
      <trkpt lat="44.38838" lon="3.55534">
        <ele>616</ele>
        <time>2020-01-04T20:53:06Z</time>
      </trkpt>
      <trkpt lat="44.38835" lon="3.55485">
        <ele>622</ele>
        <time>2020-01-04T20:53:14Z</time>
      </trkpt>
      <trkpt lat="44.38832" lon="3.55478">
        <ele>623</ele>
        <time>2020-01-04T20:53:16Z</time>
      </trkpt>
      <trkpt lat="44.38828" lon="3.55479">
        <ele>623</ele>
        <time>2020-01-04T20:53:17Z</time>
      </trkpt>
      <trkpt lat="44.38811" lon="3.55509">
        <ele>619</ele>
        <time>2020-01-04T20:53:23Z</time>
      </trkpt>
      <trkpt lat="44.38803" lon="3.55518">
        <ele>618</ele>
        <time>2020-01-04T20:53:25Z</time>
      </trkpt>
      <trkpt lat="44.38784" lon="3.55528">
        <ele>616</ele>
        <time>2020-01-04T20:53:30Z</time>
      </trkpt>
      <trkpt lat="44.38756" lon="3.55552">
        <ele>610</ele>
        <time>2020-01-04T20:53:38Z</time>
      </trkpt>
      <trkpt lat="44.38751" lon="3.5555">
        <ele>610</ele>
        <time>2020-01-04T20:53:39Z</time>
      </trkpt>
      <trkpt lat="44.38747" lon="3.55544">
        <ele>611</ele>
        <time>2020-01-04T20:53:40Z</time>
      </trkpt>
      <trkpt lat="44.38746" lon="3.55536">
        <ele>613</ele>
        <time>2020-01-04T20:53:42Z</time>
      </trkpt>
      <trkpt lat="44.38749" lon="3.55531">
        <ele>615</ele>
        <time>2020-01-04T20:53:43Z</time>
      </trkpt>
      <trkpt lat="44.38747" lon="3.55514">
        <ele>619</ele>
        <time>2020-01-04T20:53:46Z</time>
      </trkpt>
      <trkpt lat="44.38758" lon="3.55505">
        <ele>622</ele>
        <time>2020-01-04T20:53:49Z</time>
      </trkpt>
      <trkpt lat="44.38762" lon="3.55468">
        <ele>632</ele>
        <time>2020-01-04T20:53:55Z</time>
      </trkpt>
      <trkpt lat="44.38772" lon="3.55451">
        <ele>636</ele>
        <time>2020-01-04T20:53:59Z</time>
      </trkpt>
      <trkpt lat="44.38769" lon="3.55449">
        <ele>636</ele>
        <time>2020-01-04T20:53:59Z</time>
      </trkpt>
      <trkpt lat="44.38765" lon="3.55439">
        <ele>640</ele>
        <time>2020-01-04T20:54:01Z</time>
      </trkpt>
      <trkpt lat="44.38761" lon="3.55411">
        <ele>648</ele>
        <time>2020-01-04T20:54:06Z</time>
      </trkpt>
      <trkpt lat="44.3875" lon="3.55401">
        <ele>654</ele>
        <time>2020-01-04T20:54:09Z</time>
      </trkpt>
      <trkpt lat="44.3871" lon="3.55341">
        <ele>662</ele>
        <time>2020-01-04T20:54:23Z</time>
      </trkpt>
      <trkpt lat="44.38686" lon="3.55283">
        <ele>664</ele>
        <time>2020-01-04T20:54:34Z</time>
      </trkpt>
      <trkpt lat="44.38666" lon="3.55225">
        <ele>665</ele>
        <time>2020-01-04T20:54:45Z</time>
      </trkpt>
      <trkpt lat="44.38664" lon="3.55199">
        <ele>666</ele>
        <time>2020-01-04T20:54:49Z</time>
      </trkpt>
      <trkpt lat="44.38668" lon="3.55137">
        <ele>675</ele>
        <time>2020-01-04T20:55:00Z</time>
      </trkpt>
      <trkpt lat="44.38654" lon="3.55074">
        <ele>682</ele>
        <time>2020-01-04T20:55:11Z</time>
      </trkpt>
      <trkpt lat="44.3864" lon="3.55046">
        <ele>687</ele>
        <time>2020-01-04T20:55:16Z</time>
      </trkpt>
      <trkpt lat="44.38603" lon="3.55013">
        <ele>688</ele>
        <time>2020-01-04T20:55:27Z</time>
      </trkpt>
      <trkpt lat="44.38585" lon="3.55004">
        <ele>687</ele>
        <time>2020-01-04T20:55:31Z</time>
      </trkpt>
      <trkpt lat="44.38469" lon="3.54969">
        <ele>694</ele>
        <time>2020-01-04T20:55:59Z</time>
      </trkpt>
      <trkpt lat="44.38424" lon="3.54961">
        <ele>698</ele>
        <time>2020-01-04T20:56:09Z</time>
      </trkpt>
      <trkpt lat="44.38384" lon="3.54945">
        <ele>703</ele>
        <time>2020-01-04T20:56:19Z</time>
      </trkpt>
      <trkpt lat="44.38344" lon="3.54921">
        <ele>711</ele>
        <time>2020-01-04T20:56:29Z</time>
      </trkpt>
      <trkpt lat="44.38322" lon="3.54911">
        <ele>713</ele>
        <time>2020-01-04T20:56:35Z</time>
      </trkpt>
      <trkpt lat="44.383" lon="3.54906">
        <ele>713</ele>
        <time>2020-01-04T20:56:40Z</time>
      </trkpt>
      <trkpt lat="44.38278" lon="3.54905">
        <ele>711</ele>
        <time>2020-01-04T20:56:45Z</time>
      </trkpt>
      <trkpt lat="44.38238" lon="3.54911">
        <ele>704</ele>
        <time>2020-01-04T20:56:54Z</time>
      </trkpt>
      <trkpt lat="44.38228" lon="3.54908">
        <ele>701</ele>
        <time>2020-01-04T20:56:57Z</time>
      </trkpt>
      <trkpt lat="44.38224" lon="3.54903">
        <ele>700</ele>
        <time>2020-01-04T20:56:58Z</time>
      </trkpt>
      <trkpt lat="44.38207" lon="3.54852">
        <ele>703</ele>
        <time>2020-01-04T20:57:07Z</time>
      </trkpt>
      <trkpt lat="44.38197" lon="3.548">
        <ele>707</ele>
        <time>2020-01-04T20:57:16Z</time>
      </trkpt>
      <trkpt lat="44.38192" lon="3.54785">
        <ele>707</ele>
        <time>2020-01-04T20:57:19Z</time>
      </trkpt>
      <trkpt lat="44.38171" lon="3.54743">
        <ele>705</ele>
        <time>2020-01-04T20:57:28Z</time>
      </trkpt>
      <trkpt lat="44.38169" lon="3.54725">
        <ele>703</ele>
        <time>2020-01-04T20:57:31Z</time>
      </trkpt>
      <trkpt lat="44.38177" lon="3.54702">
        <ele>702</ele>
        <time>2020-01-04T20:57:35Z</time>
      </trkpt>
      <trkpt lat="44.38191" lon="3.54684">
        <ele>703</ele>
        <time>2020-01-04T20:57:39Z</time>
      </trkpt>
      <trkpt lat="44.38241" lon="3.54638">
        <ele>703</ele>
        <time>2020-01-04T20:57:53Z</time>
      </trkpt>
      <trkpt lat="44.38288" lon="3.5462">
        <ele>705</ele>
        <time>2020-01-04T20:58:05Z</time>
      </trkpt>
      <trkpt lat="44.38317" lon="3.54604">
        <ele>704</ele>
        <time>2020-01-04T20:58:12Z</time>
      </trkpt>
      <trkpt lat="44.38326" lon="3.54597">
        <ele>703</ele>
        <time>2020-01-04T20:58:14Z</time>
      </trkpt>
      <trkpt lat="44.38344" lon="3.54576">
        <ele>699</ele>
        <time>2020-01-04T20:58:20Z</time>
      </trkpt>
      <trkpt lat="44.38363" lon="3.54561">
        <ele>697</ele>
        <time>2020-01-04T20:58:25Z</time>
      </trkpt>
      <trkpt lat="44.38425" lon="3.54533">
        <ele>697</ele>
        <time>2020-01-04T20:58:40Z</time>
      </trkpt>
      <trkpt lat="44.38487" lon="3.54509">
        <ele>694</ele>
        <time>2020-01-04T20:58:55Z</time>
      </trkpt>
      <trkpt lat="44.3851" lon="3.54502">
        <ele>695</ele>
        <time>2020-01-04T20:59:01Z</time>
      </trkpt>
      <trkpt lat="44.38546" lon="3.545">
        <ele>701</ele>
        <time>2020-01-04T20:59:09Z</time>
      </trkpt>
      <trkpt lat="44.38556" lon="3.54497">
        <ele>704</ele>
        <time>2020-01-04T20:59:12Z</time>
      </trkpt>
      <trkpt lat="44.38562" lon="3.54494">
        <ele>705</ele>
        <time>2020-01-04T20:59:13Z</time>
      </trkpt>
      <trkpt lat="44.38565" lon="3.54485">
        <ele>706</ele>
        <time>2020-01-04T20:59:15Z</time>
      </trkpt>
      <trkpt lat="44.3856" lon="3.54469">
        <ele>706</ele>
        <time>2020-01-04T20:59:18Z</time>
      </trkpt>
      <trkpt lat="44.38555" lon="3.54464">
        <ele>705</ele>
        <time>2020-01-04T20:59:19Z</time>
      </trkpt>
      <trkpt lat="44.38539" lon="3.54436">
        <ele>700</ele>
        <time>2020-01-04T20:59:25Z</time>
      </trkpt>
      <trkpt lat="44.38495" lon="3.54383">
        <ele>686</ele>
        <time>2020-01-04T20:59:39Z</time>
      </trkpt>
      <trkpt lat="44.38463" lon="3.54319">
        <ele>680</ele>
        <time>2020-01-04T20:59:52Z</time>
      </trkpt>
      <trkpt lat="44.38423" lon="3.54274">
        <ele>668</ele>
        <time>2020-01-04T21:00:04Z</time>
      </trkpt>
      <trkpt lat="44.38422" lon="3.54266">
        <ele>668</ele>
        <time>2020-01-04T21:00:05Z</time>
      </trkpt>
      <trkpt lat="44.38426" lon="3.54256">
        <ele>670</ele>
        <time>2020-01-04T21:00:07Z</time>
      </trkpt>
      <trkpt lat="44.38469" lon="3.54228">
        <ele>678</ele>
        <time>2020-01-04T21:00:18Z</time>
      </trkpt>
      <trkpt lat="44.38494" lon="3.54222">
        <ele>683</ele>
        <time>2020-01-04T21:00:24Z</time>
      </trkpt>
      <trkpt lat="44.38501" lon="3.54215">
        <ele>684</ele>
        <time>2020-01-04T21:00:26Z</time>
      </trkpt>
      <trkpt lat="44.38502" lon="3.54209">
        <ele>684</ele>
        <time>2020-01-04T21:00:27Z</time>
      </trkpt>
      <trkpt lat="44.38498" lon="3.54187">
        <ele>683</ele>
        <time>2020-01-04T21:00:31Z</time>
      </trkpt>
      <trkpt lat="44.38484" lon="3.5416">
        <ele>681</ele>
        <time>2020-01-04T21:00:36Z</time>
      </trkpt>
      <trkpt lat="44.38473" lon="3.54155">
        <ele>680</ele>
        <time>2020-01-04T21:00:39Z</time>
      </trkpt>
      <trkpt lat="44.38456" lon="3.54152">
        <ele>676</ele>
        <time>2020-01-04T21:00:43Z</time>
      </trkpt>
      <trkpt lat="44.38444" lon="3.54144">
        <ele>675</ele>
        <time>2020-01-04T21:00:46Z</time>
      </trkpt>
      <trkpt lat="44.38406" lon="3.54108">
        <ele>675</ele>
        <time>2020-01-04T21:00:57Z</time>
      </trkpt>
      <trkpt lat="44.38392" lon="3.54077">
        <ele>680</ele>
        <time>2020-01-04T21:01:03Z</time>
      </trkpt>
      <trkpt lat="44.38366" lon="3.54069">
        <ele>674</ele>
        <time>2020-01-04T21:01:09Z</time>
      </trkpt>
      <trkpt lat="44.38358" lon="3.54064">
        <ele>673</ele>
        <time>2020-01-04T21:01:11Z</time>
      </trkpt>
      <trkpt lat="44.38335" lon="3.54009">
        <ele>681</ele>
        <time>2020-01-04T21:01:22Z</time>
      </trkpt>
      <trkpt lat="44.38307" lon="3.53988">
        <ele>686</ele>
        <time>2020-01-04T21:01:29Z</time>
      </trkpt>
      <trkpt lat="44.3829" lon="3.53987">
        <ele>685</ele>
        <time>2020-01-04T21:01:33Z</time>
      </trkpt>
      <trkpt lat="44.38259" lon="3.53994">
        <ele>679</ele>
        <time>2020-01-04T21:01:41Z</time>
      </trkpt>
      <trkpt lat="44.38239" lon="3.53995">
        <ele>678</ele>
        <time>2020-01-04T21:01:45Z</time>
      </trkpt>
      <trkpt lat="44.3823" lon="3.53992">
        <ele>678</ele>
        <time>2020-01-04T21:01:47Z</time>
      </trkpt>
      <trkpt lat="44.382" lon="3.53972">
        <ele>687</ele>
        <time>2020-01-04T21:01:55Z</time>
      </trkpt>
      <trkpt lat="44.38133" lon="3.53972">
        <ele>686</ele>
        <time>2020-01-04T21:02:11Z</time>
      </trkpt>
      <trkpt lat="44.38114" lon="3.53974">
        <ele>685</ele>
        <time>2020-01-04T21:02:15Z</time>
      </trkpt>
      <trkpt lat="44.38125" lon="3.53963">
        <ele>690</ele>
        <time>2020-01-04T21:02:18Z</time>
      </trkpt>
      <trkpt lat="44.38156" lon="3.53949">
        <ele>698</ele>
        <time>2020-01-04T21:02:26Z</time>
      </trkpt>
      <trkpt lat="44.38191" lon="3.5394">
        <ele>703</ele>
        <time>2020-01-04T21:02:34Z</time>
      </trkpt>
      <trkpt lat="44.38217" lon="3.53939">
        <ele>703</ele>
        <time>2020-01-04T21:02:40Z</time>
      </trkpt>
      <trkpt lat="44.38263" lon="3.53928">
        <ele>708</ele>
        <time>2020-01-04T21:02:51Z</time>
      </trkpt>
      <trkpt lat="44.38263" lon="3.53922">
        <ele>711</ele>
        <time>2020-01-04T21:02:52Z</time>
      </trkpt>
      <trkpt lat="44.38252" lon="3.53915">
        <ele>713</ele>
        <time>2020-01-04T21:02:55Z</time>
      </trkpt>
      <trkpt lat="44.38202" lon="3.53897">
        <ele>725</ele>
        <time>2020-01-04T21:03:07Z</time>
      </trkpt>
      <trkpt lat="44.38146" lon="3.53884">
        <ele>727</ele>
        <time>2020-01-04T21:03:20Z</time>
      </trkpt>
      <trkpt lat="44.38129" lon="3.53878">
        <ele>726</ele>
        <time>2020-01-04T21:03:25Z</time>
      </trkpt>
      <trkpt lat="44.38114" lon="3.53869">
        <ele>725</ele>
        <time>2020-01-04T21:03:28Z</time>
      </trkpt>
      <trkpt lat="44.38106" lon="3.53861">
        <ele>725</ele>
        <time>2020-01-04T21:03:31Z</time>
      </trkpt>
      <trkpt lat="44.38101" lon="3.53851">
        <ele>727</ele>
        <time>2020-01-04T21:03:33Z</time>
      </trkpt>
      <trkpt lat="44.38096" lon="3.53838">
        <ele>729</ele>
        <time>2020-01-04T21:03:35Z</time>
      </trkpt>
      <trkpt lat="44.38093" lon="3.5382">
        <ele>731</ele>
        <time>2020-01-04T21:03:38Z</time>
      </trkpt>
      <trkpt lat="44.38094" lon="3.53757">
        <ele>739</ele>
        <time>2020-01-04T21:03:49Z</time>
      </trkpt>
      <trkpt lat="44.38098" lon="3.53722">
        <ele>742</ele>
        <time>2020-01-04T21:03:55Z</time>
      </trkpt>
      <trkpt lat="44.3811" lon="3.53657">
        <ele>749</ele>
        <time>2020-01-04T21:04:06Z</time>
      </trkpt>
      <trkpt lat="44.38141" lon="3.53583">
        <ele>767</ele>
        <time>2020-01-04T21:04:20Z</time>
      </trkpt>
      <trkpt lat="44.38134" lon="3.53545">
        <ele>761</ele>
        <time>2020-01-04T21:04:27Z</time>
      </trkpt>
      <trkpt lat="44.38135" lon="3.53524">
        <ele>761</ele>
        <time>2020-01-04T21:04:30Z</time>
      </trkpt>
      <trkpt lat="44.38143" lon="3.53473">
        <ele>763</ele>
        <time>2020-01-04T21:04:39Z</time>
      </trkpt>
      <trkpt lat="44.38158" lon="3.53408">
        <ele>765</ele>
        <time>2020-01-04T21:04:50Z</time>
      </trkpt>
      <trkpt lat="44.38178" lon="3.53375">
        <ele>772</ele>
        <time>2020-01-04T21:04:58Z</time>
      </trkpt>
      <trkpt lat="44.38197" lon="3.5336">
        <ele>782</ele>
        <time>2020-01-04T21:05:03Z</time>
      </trkpt>
      <trkpt lat="44.38204" lon="3.53345">
        <ele>783</ele>
        <time>2020-01-04T21:05:06Z</time>
      </trkpt>
      <trkpt lat="44.38202" lon="3.53322">
        <ele>777</ele>
        <time>2020-01-04T21:05:10Z</time>
      </trkpt>
      <trkpt lat="44.38203" lon="3.53286">
        <ele>772</ele>
        <time>2020-01-04T21:05:16Z</time>
      </trkpt>
      <trkpt lat="44.38215" lon="3.53247">
        <ele>774</ele>
        <time>2020-01-04T21:05:23Z</time>
      </trkpt>
      <trkpt lat="44.38235" lon="3.53215">
        <ele>777</ele>
        <time>2020-01-04T21:05:30Z</time>
      </trkpt>
      <trkpt lat="44.38249" lon="3.532">
        <ele>781</ele>
        <time>2020-01-04T21:05:34Z</time>
      </trkpt>
      <trkpt lat="44.38272" lon="3.53183">
        <ele>786</ele>
        <time>2020-01-04T21:05:40Z</time>
      </trkpt>
      <trkpt lat="44.38315" lon="3.53162">
        <ele>799</ele>
        <time>2020-01-04T21:05:51Z</time>
      </trkpt>
      <trkpt lat="44.38375" lon="3.53142">
        <ele>816</ele>
        <time>2020-01-04T21:06:05Z</time>
      </trkpt>
      <trkpt lat="44.38393" lon="3.53128">
        <ele>818</ele>
        <time>2020-01-04T21:06:10Z</time>
      </trkpt>
      <trkpt lat="44.38401" lon="3.53117">
        <ele>819</ele>
        <time>2020-01-04T21:06:12Z</time>
      </trkpt>
      <trkpt lat="44.38406" lon="3.53106">
        <ele>818</ele>
        <time>2020-01-04T21:06:15Z</time>
      </trkpt>
      <trkpt lat="44.38412" lon="3.53078">
        <ele>814</ele>
        <time>2020-01-04T21:06:19Z</time>
      </trkpt>
      <trkpt lat="44.38406" lon="3.52978">
        <ele>806</ele>
        <time>2020-01-04T21:06:36Z</time>
      </trkpt>
      <trkpt lat="44.38399" lon="3.52934">
        <ele>799</ele>
        <time>2020-01-04T21:06:44Z</time>
      </trkpt>
      <trkpt lat="44.384" lon="3.52921">
        <ele>799</ele>
        <time>2020-01-04T21:06:46Z</time>
      </trkpt>
      <trkpt lat="44.38514" lon="3.52849">
        <ele>801</ele>
        <time>2020-01-04T21:07:15Z</time>
      </trkpt>
      <trkpt lat="44.38567" lon="3.52819">
        <ele>796</ele>
        <time>2020-01-04T21:07:28Z</time>
      </trkpt>
      <trkpt lat="44.38599" lon="3.52809">
        <ele>796</ele>
        <time>2020-01-04T21:07:36Z</time>
      </trkpt>
      <trkpt lat="44.38633" lon="3.52808">
        <ele>798</ele>
        <time>2020-01-04T21:07:44Z</time>
      </trkpt>
      <trkpt lat="44.38644" lon="3.52802">
        <ele>796</ele>
        <time>2020-01-04T21:07:47Z</time>
      </trkpt>
      <trkpt lat="44.38722" lon="3.52699">
        <ele>768</ele>
        <time>2020-01-04T21:08:12Z</time>
      </trkpt>
      <trkpt lat="44.3873" lon="3.52697">
        <ele>769</ele>
        <time>2020-01-04T21:08:14Z</time>
      </trkpt>
      <trkpt lat="44.38743" lon="3.52699">
        <ele>771</ele>
        <time>2020-01-04T21:08:17Z</time>
      </trkpt>
      <trkpt lat="44.38759" lon="3.52707">
        <ele>773</ele>
        <time>2020-01-04T21:08:21Z</time>
      </trkpt>
      <trkpt lat="44.38767" lon="3.52715">
        <ele>775</ele>
        <time>2020-01-04T21:08:23Z</time>
      </trkpt>
      <trkpt lat="44.38787" lon="3.52744">
        <ele>782</ele>
        <time>2020-01-04T21:08:30Z</time>
      </trkpt>
      <trkpt lat="44.38805" lon="3.52782">
        <ele>795</ele>
        <time>2020-01-04T21:08:37Z</time>
      </trkpt>
      <trkpt lat="44.3881" lon="3.52787">
        <ele>796</ele>
        <time>2020-01-04T21:08:39Z</time>
      </trkpt>
      <trkpt lat="44.38817" lon="3.52788">
        <ele>796</ele>
        <time>2020-01-04T21:08:40Z</time>
      </trkpt>
      <trkpt lat="44.38823" lon="3.52786">
        <ele>794</ele>
        <time>2020-01-04T21:08:42Z</time>
      </trkpt>
      <trkpt lat="44.38828" lon="3.52781">
        <ele>791</ele>
        <time>2020-01-04T21:08:43Z</time>
      </trkpt>
      <trkpt lat="44.38847" lon="3.52753">
        <ele>779</ele>
        <time>2020-01-04T21:08:50Z</time>
      </trkpt>
      <trkpt lat="44.38862" lon="3.52739">
        <ele>777</ele>
        <time>2020-01-04T21:08:54Z</time>
      </trkpt>
      <trkpt lat="44.38878" lon="3.52736">
        <ele>779</ele>
        <time>2020-01-04T21:08:58Z</time>
      </trkpt>
      <trkpt lat="44.38889" lon="3.52727">
        <ele>777</ele>
        <time>2020-01-04T21:09:01Z</time>
      </trkpt>
      <trkpt lat="44.38894" lon="3.52709">
        <ele>768</ele>
        <time>2020-01-04T21:09:04Z</time>
      </trkpt>
      <trkpt lat="44.38897" lon="3.52678">
        <ele>751</ele>
        <time>2020-01-04T21:09:09Z</time>
      </trkpt>
      <trkpt lat="44.38901" lon="3.52671">
        <ele>748</ele>
        <time>2020-01-04T21:09:11Z</time>
      </trkpt>
      <trkpt lat="44.38915" lon="3.52663">
        <ele>745</ele>
        <time>2020-01-04T21:09:14Z</time>
      </trkpt>
      <trkpt lat="44.38941" lon="3.52658">
        <ele>751</ele>
        <time>2020-01-04T21:09:20Z</time>
      </trkpt>
      <trkpt lat="44.38955" lon="3.52651">
        <ele>752</ele>
        <time>2020-01-04T21:09:24Z</time>
      </trkpt>
      <trkpt lat="44.3899" lon="3.52626">
        <ele>751</ele>
        <time>2020-01-04T21:09:33Z</time>
      </trkpt>
      <trkpt lat="44.39007" lon="3.52618">
        <ele>752</ele>
        <time>2020-01-04T21:09:37Z</time>
      </trkpt>
      <trkpt lat="44.39034" lon="3.52583">
        <ele>742</ele>
        <time>2020-01-04T21:09:46Z</time>
      </trkpt>
      <trkpt lat="44.3905" lon="3.52574">
        <ele>742</ele>
        <time>2020-01-04T21:09:50Z</time>
      </trkpt>
      <trkpt lat="44.39061" lon="3.52572">
        <ele>743</ele>
        <time>2020-01-04T21:09:52Z</time>
      </trkpt>
      <trkpt lat="44.39091" lon="3.52538">
        <ele>733</ele>
        <time>2020-01-04T21:10:01Z</time>
      </trkpt>
      <trkpt lat="44.39099" lon="3.52533">
        <ele>732</ele>
        <time>2020-01-04T21:10:03Z</time>
      </trkpt>
      <trkpt lat="44.39122" lon="3.52532">
        <ele>735</ele>
        <time>2020-01-04T21:10:09Z</time>
      </trkpt>
      <trkpt lat="44.39165" lon="3.52557">
        <ele>753</ele>
        <time>2020-01-04T21:10:20Z</time>
      </trkpt>
      <trkpt lat="44.39169" lon="3.52555">
        <ele>753</ele>
        <time>2020-01-04T21:10:21Z</time>
      </trkpt>
      <trkpt lat="44.39173" lon="3.52547">
        <ele>751</ele>
        <time>2020-01-04T21:10:22Z</time>
      </trkpt>
      <trkpt lat="44.39175" lon="3.52491">
        <ele>730</ele>
        <time>2020-01-04T21:10:32Z</time>
      </trkpt>
      <trkpt lat="44.3918" lon="3.5247">
        <ele>726</ele>
        <time>2020-01-04T21:10:35Z</time>
      </trkpt>
      <trkpt lat="44.39221" lon="3.5242">
        <ele>727</ele>
        <time>2020-01-04T21:10:48Z</time>
      </trkpt>
      <trkpt lat="44.39242" lon="3.52389">
        <ele>728</ele>
        <time>2020-01-04T21:10:55Z</time>
      </trkpt>
      <trkpt lat="44.39251" lon="3.52364">
        <ele>726</ele>
        <time>2020-01-04T21:11:00Z</time>
      </trkpt>
      <trkpt lat="44.39253" lon="3.52344">
        <ele>722</ele>
        <time>2020-01-04T21:11:03Z</time>
      </trkpt>
      <trkpt lat="44.39252" lon="3.5233">
        <ele>720</ele>
        <time>2020-01-04T21:11:06Z</time>
      </trkpt>
      <trkpt lat="44.39242" lon="3.523">
        <ele>726</ele>
        <time>2020-01-04T21:11:11Z</time>
      </trkpt>
      <trkpt lat="44.39227" lon="3.52295">
        <ele>727</ele>
        <time>2020-01-04T21:11:15Z</time>
      </trkpt>
      <trkpt lat="44.39205" lon="3.52321">
        <ele>718</ele>
        <time>2020-01-04T21:11:21Z</time>
      </trkpt>
      <trkpt lat="44.39185" lon="3.5237">
        <ele>712</ele>
        <time>2020-01-04T21:11:31Z</time>
      </trkpt>
      <trkpt lat="44.39172" lon="3.52386">
        <ele>709</ele>
        <time>2020-01-04T21:11:35Z</time>
      </trkpt>
      <trkpt lat="44.39153" lon="3.52402">
        <ele>705</ele>
        <time>2020-01-04T21:11:40Z</time>
      </trkpt>
      <trkpt lat="44.39123" lon="3.5241">
        <ele>699</ele>
        <time>2020-01-04T21:11:47Z</time>
      </trkpt>
      <trkpt lat="44.39093" lon="3.52414">
        <ele>692</ele>
        <time>2020-01-04T21:11:54Z</time>
      </trkpt>
      <trkpt lat="44.39085" lon="3.5242">
        <ele>691</ele>
        <time>2020-01-04T21:11:56Z</time>
      </trkpt>
      <trkpt lat="44.39062" lon="3.52428">
        <ele>691</ele>
        <time>2020-01-04T21:12:02Z</time>
      </trkpt>
      <trkpt lat="44.39022" lon="3.52423">
        <ele>685</ele>
        <time>2020-01-04T21:12:11Z</time>
      </trkpt>
      <trkpt lat="44.38997" lon="3.52423">
        <ele>683</ele>
        <time>2020-01-04T21:12:17Z</time>
      </trkpt>
      <trkpt lat="44.38967" lon="3.52412">
        <ele>676</ele>
        <time>2020-01-04T21:12:24Z</time>
      </trkpt>
      <trkpt lat="44.38949" lon="3.5241">
        <ele>673</ele>
        <time>2020-01-04T21:12:29Z</time>
      </trkpt>
      <trkpt lat="44.38924" lon="3.52411">
        <ele>668</ele>
        <time>2020-01-04T21:12:34Z</time>
      </trkpt>
      <trkpt lat="44.38909" lon="3.52407">
        <ele>665</ele>
        <time>2020-01-04T21:12:38Z</time>
      </trkpt>
      <trkpt lat="44.38863" lon="3.52361">
        <ele>659</ele>
        <time>2020-01-04T21:12:51Z</time>
      </trkpt>
      <trkpt lat="44.38863" lon="3.52349">
        <ele>660</ele>
        <time>2020-01-04T21:12:53Z</time>
      </trkpt>
      <trkpt lat="44.38825" lon="3.52254">
        <ele>661</ele>
        <time>2020-01-04T21:13:11Z</time>
      </trkpt>
      <trkpt lat="44.388" lon="3.522">
        <ele>667</ele>
        <time>2020-01-04T21:13:22Z</time>
      </trkpt>
      <trkpt lat="44.38775" lon="3.52162">
        <ele>667</ele>
        <time>2020-01-04T21:13:31Z</time>
      </trkpt>
      <trkpt lat="44.3876" lon="3.52146">
        <ele>668</ele>
        <time>2020-01-04T21:13:35Z</time>
      </trkpt>
      <trkpt lat="44.38732" lon="3.52123">
        <ele>669</ele>
        <time>2020-01-04T21:13:43Z</time>
      </trkpt>
      <trkpt lat="44.3873" lon="3.52118">
        <ele>671</ele>
        <time>2020-01-04T21:13:44Z</time>
      </trkpt>
      <trkpt lat="44.38734" lon="3.52108">
        <ele>676</ele>
        <time>2020-01-04T21:13:46Z</time>
      </trkpt>
      <trkpt lat="44.38738" lon="3.52106">
        <ele>678</ele>
        <time>2020-01-04T21:13:47Z</time>
      </trkpt>
      <trkpt lat="44.38752" lon="3.52113">
        <ele>679</ele>
        <time>2020-01-04T21:13:50Z</time>
      </trkpt>
      <trkpt lat="44.38805" lon="3.52164">
        <ele>679</ele>
        <time>2020-01-04T21:14:05Z</time>
      </trkpt>
      <trkpt lat="44.38861" lon="3.52235">
        <ele>683</ele>
        <time>2020-01-04T21:14:23Z</time>
      </trkpt>
      <trkpt lat="44.38887" lon="3.52271">
        <ele>686</ele>
        <time>2020-01-04T21:14:31Z</time>
      </trkpt>
      <trkpt lat="44.3892" lon="3.52326">
        <ele>686</ele>
        <time>2020-01-04T21:14:43Z</time>
      </trkpt>
      <trkpt lat="44.38931" lon="3.52338">
        <ele>685</ele>
        <time>2020-01-04T21:14:46Z</time>
      </trkpt>
      <trkpt lat="44.38958" lon="3.52352">
        <ele>688</ele>
        <time>2020-01-04T21:14:53Z</time>
      </trkpt>
      <trkpt lat="44.38986" lon="3.52354">
        <ele>694</ele>
        <time>2020-01-04T21:15:00Z</time>
      </trkpt>
      <trkpt lat="44.38995" lon="3.52349">
        <ele>697</ele>
        <time>2020-01-04T21:15:02Z</time>
      </trkpt>
      <trkpt lat="44.38999" lon="3.52343">
        <ele>699</ele>
        <time>2020-01-04T21:15:03Z</time>
      </trkpt>
      <trkpt lat="44.38999" lon="3.52333">
        <ele>702</ele>
        <time>2020-01-04T21:15:05Z</time>
      </trkpt>
      <trkpt lat="44.3899" lon="3.52325">
        <ele>703</ele>
        <time>2020-01-04T21:15:08Z</time>
      </trkpt>
      <trkpt lat="44.38973" lon="3.52324">
        <ele>699</ele>
        <time>2020-01-04T21:15:12Z</time>
      </trkpt>
      <trkpt lat="44.38952" lon="3.52312">
        <ele>698</ele>
        <time>2020-01-04T21:15:17Z</time>
      </trkpt>
      <trkpt lat="44.38935" lon="3.52292">
        <ele>699</ele>
        <time>2020-01-04T21:15:22Z</time>
      </trkpt>
      <trkpt lat="44.38838" lon="3.52085">
        <ele>719</ele>
        <time>2020-01-04T21:16:03Z</time>
      </trkpt>
      <trkpt lat="44.38825" lon="3.52061">
        <ele>726</ele>
        <time>2020-01-04T21:16:08Z</time>
      </trkpt>
      <trkpt lat="44.38813" lon="3.52046">
        <ele>729</ele>
        <time>2020-01-04T21:16:12Z</time>
      </trkpt>
      <trkpt lat="44.38803" lon="3.52034">
        <ele>733</ele>
        <time>2020-01-04T21:16:15Z</time>
      </trkpt>
      <trkpt lat="44.38769" lon="3.5201">
        <ele>737</ele>
        <time>2020-01-04T21:16:24Z</time>
      </trkpt>
      <trkpt lat="44.38666" lon="3.51962">
        <ele>739</ele>
        <time>2020-01-04T21:16:49Z</time>
      </trkpt>
      <trkpt lat="44.38641" lon="3.51948">
        <ele>744</ele>
        <time>2020-01-04T21:16:56Z</time>
      </trkpt>
      <trkpt lat="44.38619" lon="3.51934">
        <ele>748</ele>
        <time>2020-01-04T21:17:01Z</time>
      </trkpt>
      <trkpt lat="44.38539" lon="3.51874">
        <ele>760</ele>
        <time>2020-01-04T21:17:23Z</time>
      </trkpt>
      <trkpt lat="44.38435" lon="3.51819">
        <ele>767</ele>
        <time>2020-01-04T21:17:49Z</time>
      </trkpt>
      <trkpt lat="44.38411" lon="3.51801">
        <ele>765</ele>
        <time>2020-01-04T21:17:55Z</time>
      </trkpt>
      <trkpt lat="44.38394" lon="3.51784">
        <ele>763</ele>
        <time>2020-01-04T21:18:00Z</time>
      </trkpt>
      <trkpt lat="44.38384" lon="3.51764">
        <ele>763</ele>
        <time>2020-01-04T21:18:04Z</time>
      </trkpt>
      <trkpt lat="44.38385" lon="3.51756">
        <ele>764</ele>
        <time>2020-01-04T21:18:05Z</time>
      </trkpt>
      <trkpt lat="44.38393" lon="3.51743">
        <ele>765</ele>
        <time>2020-01-04T21:18:08Z</time>
      </trkpt>
      <trkpt lat="44.38399" lon="3.5174">
        <ele>766</ele>
        <time>2020-01-04T21:18:10Z</time>
      </trkpt>
      <trkpt lat="44.38406" lon="3.5174">
        <ele>768</ele>
        <time>2020-01-04T21:18:11Z</time>
      </trkpt>
      <trkpt lat="44.38467" lon="3.51766">
        <ele>780</ele>
        <time>2020-01-04T21:18:26Z</time>
      </trkpt>
      <trkpt lat="44.38464" lon="3.51756">
        <ele>781</ele>
        <time>2020-01-04T21:18:28Z</time>
      </trkpt>
      <trkpt lat="44.38449" lon="3.51741">
        <ele>777</ele>
        <time>2020-01-04T21:18:32Z</time>
      </trkpt>
      <trkpt lat="44.38447" lon="3.51733">
        <ele>775</ele>
        <time>2020-01-04T21:18:34Z</time>
      </trkpt>
      <trkpt lat="44.38451" lon="3.5172">
        <ele>773</ele>
        <time>2020-01-04T21:18:36Z</time>
      </trkpt>
      <trkpt lat="44.38457" lon="3.51715">
        <ele>773</ele>
        <time>2020-01-04T21:18:38Z</time>
      </trkpt>
      <trkpt lat="44.38486" lon="3.51706">
        <ele>777</ele>
        <time>2020-01-04T21:18:45Z</time>
      </trkpt>
      <trkpt lat="44.38509" lon="3.51691">
        <ele>781</ele>
        <time>2020-01-04T21:18:50Z</time>
      </trkpt>
      <trkpt lat="44.38576" lon="3.5163">
        <ele>792</ele>
        <time>2020-01-04T21:19:09Z</time>
      </trkpt>
      <trkpt lat="44.3864" lon="3.51585">
        <ele>802</ele>
        <time>2020-01-04T21:19:26Z</time>
      </trkpt>
      <trkpt lat="44.38717" lon="3.5152">
        <ele>812</ele>
        <time>2020-01-04T21:19:47Z</time>
      </trkpt>
      <trkpt lat="44.38738" lon="3.515">
        <ele>815</ele>
        <time>2020-01-04T21:19:53Z</time>
      </trkpt>
      <trkpt lat="44.38841" lon="3.51371">
        <ele>824</ele>
        <time>2020-01-04T21:20:25Z</time>
      </trkpt>
      <trkpt lat="44.38862" lon="3.51351">
        <ele>826</ele>
        <time>2020-01-04T21:20:31Z</time>
      </trkpt>
      <trkpt lat="44.38916" lon="3.5131">
        <ele>835</ele>
        <time>2020-01-04T21:20:45Z</time>
      </trkpt>
      <trkpt lat="44.38929" lon="3.51297">
        <ele>835</ele>
        <time>2020-01-04T21:20:49Z</time>
      </trkpt>
      <trkpt lat="44.38951" lon="3.51268">
        <ele>833</ele>
        <time>2020-01-04T21:20:56Z</time>
      </trkpt>
      <trkpt lat="44.39021" lon="3.51219">
        <ele>844</ele>
        <time>2020-01-04T21:21:14Z</time>
      </trkpt>
      <trkpt lat="44.39038" lon="3.51204">
        <ele>846</ele>
        <time>2020-01-04T21:21:19Z</time>
      </trkpt>
      <trkpt lat="44.3915" lon="3.51094">
        <ele>852</ele>
        <time>2020-01-04T21:21:51Z</time>
      </trkpt>
      <trkpt lat="44.39174" lon="3.51076">
        <ele>853</ele>
        <time>2020-01-04T21:21:57Z</time>
      </trkpt>
      <trkpt lat="44.392" lon="3.51061">
        <ele>856</ele>
        <time>2020-01-04T21:22:04Z</time>
      </trkpt>
      <trkpt lat="44.39213" lon="3.51057">
        <ele>858</ele>
        <time>2020-01-04T21:22:07Z</time>
      </trkpt>
      <trkpt lat="44.39249" lon="3.5106">
        <ele>866</ele>
        <time>2020-01-04T21:22:16Z</time>
      </trkpt>
      <trkpt lat="44.39267" lon="3.51053">
        <ele>869</ele>
        <time>2020-01-04T21:22:20Z</time>
      </trkpt>
      <trkpt lat="44.39283" lon="3.51026">
        <ele>865</ele>
        <time>2020-01-04T21:22:26Z</time>
      </trkpt>
      <trkpt lat="44.39364" lon="3.50959">
        <ele>875</ele>
        <time>2020-01-04T21:22:48Z</time>
      </trkpt>
      <trkpt lat="44.39422" lon="3.50892">
        <ele>877</ele>
        <time>2020-01-04T21:23:05Z</time>
      </trkpt>
      <trkpt lat="44.39443" lon="3.50875">
        <ele>881</ele>
        <time>2020-01-04T21:23:11Z</time>
      </trkpt>
      <trkpt lat="44.39456" lon="3.50847">
        <ele>879</ele>
        <time>2020-01-04T21:23:17Z</time>
      </trkpt>
      <trkpt lat="44.39458" lon="3.50837">
        <ele>878</ele>
        <time>2020-01-04T21:23:18Z</time>
      </trkpt>
      <trkpt lat="44.39455" lon="3.50828">
        <ele>879</ele>
        <time>2020-01-04T21:23:20Z</time>
      </trkpt>
      <trkpt lat="44.39429" lon="3.50822">
        <ele>879</ele>
        <time>2020-01-04T21:23:26Z</time>
      </trkpt>
      <trkpt lat="44.39406" lon="3.5083">
        <ele>877</ele>
        <time>2020-01-04T21:23:32Z</time>
      </trkpt>
      <trkpt lat="44.39336" lon="3.50862">
        <ele>882</ele>
        <time>2020-01-04T21:23:49Z</time>
      </trkpt>
      <trkpt lat="44.39308" lon="3.50866">
        <ele>881</ele>
        <time>2020-01-04T21:23:55Z</time>
      </trkpt>
      <trkpt lat="44.39284" lon="3.50866">
        <ele>882</ele>
        <time>2020-01-04T21:24:01Z</time>
      </trkpt>
      <trkpt lat="44.39275" lon="3.50864">
        <ele>883</ele>
        <time>2020-01-04T21:24:03Z</time>
      </trkpt>
      <trkpt lat="44.39264" lon="3.50855">
        <ele>886</ele>
        <time>2020-01-04T21:24:06Z</time>
      </trkpt>
      <trkpt lat="44.39257" lon="3.50847">
        <ele>888</ele>
        <time>2020-01-04T21:24:08Z</time>
      </trkpt>
      <trkpt lat="44.39255" lon="3.50836">
        <ele>891</ele>
        <time>2020-01-04T21:24:10Z</time>
      </trkpt>
      <trkpt lat="44.39257" lon="3.50827">
        <ele>893</ele>
        <time>2020-01-04T21:24:12Z</time>
      </trkpt>
      <trkpt lat="44.39227" lon="3.50754">
        <ele>904</ele>
        <time>2020-01-04T21:24:26Z</time>
      </trkpt>
      <trkpt lat="44.39227" lon="3.50747">
        <ele>906</ele>
        <time>2020-01-04T21:24:27Z</time>
      </trkpt>
      <trkpt lat="44.39232" lon="3.50743">
        <ele>907</ele>
        <time>2020-01-04T21:24:28Z</time>
      </trkpt>
      <trkpt lat="44.39248" lon="3.50752">
        <ele>908</ele>
        <time>2020-01-04T21:24:32Z</time>
      </trkpt>
      <trkpt lat="44.39243" lon="3.50741">
        <ele>910</ele>
        <time>2020-01-04T21:24:34Z</time>
      </trkpt>
      <trkpt lat="44.39211" lon="3.50702">
        <ele>913</ele>
        <time>2020-01-04T21:24:44Z</time>
      </trkpt>
      <trkpt lat="44.39183" lon="3.50674">
        <ele>915</ele>
        <time>2020-01-04T21:24:52Z</time>
      </trkpt>
      <trkpt lat="44.39173" lon="3.50658">
        <ele>917</ele>
        <time>2020-01-04T21:24:56Z</time>
      </trkpt>
      <trkpt lat="44.39158" lon="3.50623">
        <ele>924</ele>
        <time>2020-01-04T21:25:03Z</time>
      </trkpt>
      <trkpt lat="44.39109" lon="3.50556">
        <ele>925</ele>
        <time>2020-01-04T21:25:19Z</time>
      </trkpt>
      <trkpt lat="44.391" lon="3.50538">
        <ele>925</ele>
        <time>2020-01-04T21:25:22Z</time>
      </trkpt>
      <trkpt lat="44.39096" lon="3.50519">
        <ele>927</ele>
        <time>2020-01-04T21:25:26Z</time>
      </trkpt>
      <trkpt lat="44.39094" lon="3.50449">
        <ele>936</ele>
        <time>2020-01-04T21:25:37Z</time>
      </trkpt>
      <trkpt lat="44.39075" lon="3.50384">
        <ele>942</ele>
        <time>2020-01-04T21:25:49Z</time>
      </trkpt>
      <trkpt lat="44.39066" lon="3.50314">
        <ele>951</ele>
        <time>2020-01-04T21:26:01Z</time>
      </trkpt>
      <trkpt lat="44.39056" lon="3.50295">
        <ele>953</ele>
        <time>2020-01-04T21:26:05Z</time>
      </trkpt>
      <trkpt lat="44.39043" lon="3.50255">
        <ele>957</ele>
        <time>2020-01-04T21:26:12Z</time>
      </trkpt>
      <trkpt lat="44.39041" lon="3.50215">
        <ele>959</ele>
        <time>2020-01-04T21:26:19Z</time>
      </trkpt>
      <trkpt lat="44.39045" lon="3.50189">
        <ele>961</ele>
        <time>2020-01-04T21:26:23Z</time>
      </trkpt>
      <trkpt lat="44.39044" lon="3.50178">
        <ele>962</ele>
        <time>2020-01-04T21:26:25Z</time>
      </trkpt>
      <trkpt lat="44.39038" lon="3.50165">
        <ele>963</ele>
        <time>2020-01-04T21:26:28Z</time>
      </trkpt>
      <trkpt lat="44.39034" lon="3.5013">
        <ele>963</ele>
        <time>2020-01-04T21:26:34Z</time>
      </trkpt>
      <trkpt lat="44.39029" lon="3.5011">
        <ele>964</ele>
        <time>2020-01-04T21:26:37Z</time>
      </trkpt>
      <trkpt lat="44.3896" lon="3.49952">
        <ele>979</ele>
        <time>2020-01-04T21:27:08Z</time>
      </trkpt>
      <trkpt lat="44.38931" lon="3.49893">
        <ele>985</ele>
        <time>2020-01-04T21:27:20Z</time>
      </trkpt>
      <trkpt lat="44.38907" lon="3.49825">
        <ele>990</ele>
        <time>2020-01-04T21:27:33Z</time>
      </trkpt>
      <trkpt lat="44.38899" lon="3.4977">
        <ele>995</ele>
        <time>2020-01-04T21:27:42Z</time>
      </trkpt>
      <trkpt lat="44.38898" lon="3.49746">
        <ele>997</ele>
        <time>2020-01-04T21:27:46Z</time>
      </trkpt>
      <trkpt lat="44.38902" lon="3.49681">
        <ele>1003</ele>
        <time>2020-01-04T21:27:57Z</time>
      </trkpt>
      <trkpt lat="44.38901" lon="3.49646">
        <ele>1006</ele>
        <time>2020-01-04T21:28:03Z</time>
      </trkpt>
      <trkpt lat="44.38887" lon="3.49489">
        <ele>1016</ele>
        <time>2020-01-04T21:28:29Z</time>
      </trkpt>
      <trkpt lat="44.38891" lon="3.49444">
        <ele>1018</ele>
        <time>2020-01-04T21:28:37Z</time>
      </trkpt>
      <trkpt lat="44.38889" lon="3.49417">
        <ele>1020</ele>
        <time>2020-01-04T21:28:41Z</time>
      </trkpt>
      <trkpt lat="44.38885" lon="3.49398">
        <ele>1020</ele>
        <time>2020-01-04T21:28:45Z</time>
      </trkpt>
      <trkpt lat="44.38874" lon="3.49373">
        <ele>1021</ele>
        <time>2020-01-04T21:28:50Z</time>
      </trkpt>
      <trkpt lat="44.38856" lon="3.49396">
        <ele>1020</ele>
        <time>2020-01-04T21:28:55Z</time>
      </trkpt>
      <trkpt lat="44.38827" lon="3.49443">
        <ele>1020</ele>
        <time>2020-01-04T21:29:06Z</time>
      </trkpt>
      <trkpt lat="44.38803" lon="3.49467">
        <ele>1019</ele>
        <time>2020-01-04T21:29:13Z</time>
      </trkpt>
      <trkpt lat="44.38791" lon="3.49488">
        <ele>1019</ele>
        <time>2020-01-04T21:29:17Z</time>
      </trkpt>
      <trkpt lat="44.38767" lon="3.49595">
        <ele>1016</ele>
        <time>2020-01-04T21:29:36Z</time>
      </trkpt>
      <trkpt lat="44.38765" lon="3.4961">
        <ele>1015</ele>
        <time>2020-01-04T21:29:38Z</time>
      </trkpt>
      <trkpt lat="44.38765" lon="3.49674">
        <ele>1013</ele>
        <time>2020-01-04T21:29:49Z</time>
      </trkpt>
      <trkpt lat="44.38757" lon="3.4966">
        <ele>1013</ele>
        <time>2020-01-04T21:29:52Z</time>
      </trkpt>
      <trkpt lat="44.38734" lon="3.49596">
        <ele>1015</ele>
        <time>2020-01-04T21:30:04Z</time>
      </trkpt>
      <trkpt lat="44.3872" lon="3.49547">
        <ele>1016</ele>
        <time>2020-01-04T21:30:13Z</time>
      </trkpt>
      <trkpt lat="44.38709" lon="3.49521">
        <ele>1016</ele>
        <time>2020-01-04T21:30:18Z</time>
      </trkpt>
      <trkpt lat="44.38689" lon="3.49489">
        <ele>1015</ele>
        <time>2020-01-04T21:30:25Z</time>
      </trkpt>
      <trkpt lat="44.3868" lon="3.49481">
        <ele>1014</ele>
        <time>2020-01-04T21:30:27Z</time>
      </trkpt>
      <trkpt lat="44.38666" lon="3.49476">
        <ele>1013</ele>
        <time>2020-01-04T21:30:31Z</time>
      </trkpt>
      <trkpt lat="44.38615" lon="3.49469">
        <ele>1013</ele>
        <time>2020-01-04T21:30:43Z</time>
      </trkpt>
      <trkpt lat="44.38587" lon="3.4947">
        <ele>1013</ele>
        <time>2020-01-04T21:30:49Z</time>
      </trkpt>
      <trkpt lat="44.38532" lon="3.49479">
        <ele>1016</ele>
        <time>2020-01-04T21:31:02Z</time>
      </trkpt>
      <trkpt lat="44.38473" lon="3.49519">
        <ele>1015</ele>
        <time>2020-01-04T21:31:17Z</time>
      </trkpt>
      <trkpt lat="44.38448" lon="3.49531">
        <ele>1014</ele>
        <time>2020-01-04T21:31:24Z</time>
      </trkpt>
      <trkpt lat="44.38402" lon="3.49546">
        <ele>1011</ele>
        <time>2020-01-04T21:31:35Z</time>
      </trkpt>
      <trkpt lat="44.38376" lon="3.49549">
        <ele>1009</ele>
        <time>2020-01-04T21:31:41Z</time>
      </trkpt>
      <trkpt lat="44.38361" lon="3.49555">
        <ele>1008</ele>
        <time>2020-01-04T21:31:44Z</time>
      </trkpt>
      <trkpt lat="44.38336" lon="3.4957">
        <ele>1006</ele>
        <time>2020-01-04T21:31:51Z</time>
      </trkpt>
      <trkpt lat="44.38324" lon="3.49572">
        <ele>1006</ele>
        <time>2020-01-04T21:31:54Z</time>
      </trkpt>
      <trkpt lat="44.38309" lon="3.4957">
        <ele>1005</ele>
        <time>2020-01-04T21:31:57Z</time>
      </trkpt>
      <trkpt lat="44.38261" lon="3.49557">
        <ele>1003</ele>
        <time>2020-01-04T21:32:09Z</time>
      </trkpt>
      <trkpt lat="44.38236" lon="3.49556">
        <ele>1001</ele>
        <time>2020-01-04T21:32:14Z</time>
      </trkpt>
      <trkpt lat="44.38202" lon="3.49542">
        <ele>998</ele>
        <time>2020-01-04T21:32:23Z</time>
      </trkpt>
      <trkpt lat="44.38138" lon="3.49524">
        <ele>992</ele>
        <time>2020-01-04T21:32:38Z</time>
      </trkpt>
      <trkpt lat="44.38128" lon="3.49518">
        <ele>991</ele>
        <time>2020-01-04T21:32:40Z</time>
      </trkpt>
      <trkpt lat="44.38118" lon="3.49507">
        <ele>990</ele>
        <time>2020-01-04T21:32:43Z</time>
      </trkpt>
      <trkpt lat="44.38067" lon="3.49428">
        <ele>981</ele>
        <time>2020-01-04T21:33:01Z</time>
      </trkpt>
      <trkpt lat="44.38052" lon="3.49417">
        <ele>979</ele>
        <time>2020-01-04T21:33:05Z</time>
      </trkpt>
      <trkpt lat="44.38037" lon="3.4941">
        <ele>978</ele>
        <time>2020-01-04T21:33:09Z</time>
      </trkpt>
      <trkpt lat="44.38023" lon="3.49407">
        <ele>977</ele>
        <time>2020-01-04T21:33:12Z</time>
      </trkpt>
      <trkpt lat="44.37985" lon="3.49409">
        <ele>975</ele>
        <time>2020-01-04T21:33:21Z</time>
      </trkpt>
      <trkpt lat="44.3794" lon="3.49404">
        <ele>972</ele>
        <time>2020-01-04T21:33:32Z</time>
      </trkpt>
      <trkpt lat="44.37887" lon="3.49416">
        <ele>969</ele>
        <time>2020-01-04T21:33:44Z</time>
      </trkpt>
      <trkpt lat="44.37838" lon="3.49417">
        <ele>964</ele>
        <time>2020-01-04T21:33:56Z</time>
      </trkpt>
      <trkpt lat="44.37799" lon="3.49423">
        <ele>962</ele>
        <time>2020-01-04T21:34:05Z</time>
      </trkpt>
      <trkpt lat="44.37778" lon="3.49422">
        <ele>961</ele>
        <time>2020-01-04T21:34:10Z</time>
      </trkpt>
      <trkpt lat="44.37764" lon="3.49424">
        <ele>960</ele>
        <time>2020-01-04T21:34:13Z</time>
      </trkpt>
      <trkpt lat="44.3773" lon="3.49437">
        <ele>958</ele>
        <time>2020-01-04T21:34:21Z</time>
      </trkpt>
      <trkpt lat="44.37712" lon="3.49447">
        <ele>958</ele>
        <time>2020-01-04T21:34:26Z</time>
      </trkpt>
      <trkpt lat="44.37702" lon="3.49458">
        <ele>957</ele>
        <time>2020-01-04T21:34:29Z</time>
      </trkpt>
      <trkpt lat="44.3769" lon="3.4949">
        <ele>957</ele>
        <time>2020-01-04T21:34:35Z</time>
      </trkpt>
      <trkpt lat="44.37684" lon="3.49499">
        <ele>957</ele>
        <time>2020-01-04T21:34:37Z</time>
      </trkpt>
      <trkpt lat="44.37671" lon="3.49509">
        <ele>957</ele>
        <time>2020-01-04T21:34:40Z</time>
      </trkpt>
      <trkpt lat="44.37645" lon="3.49537">
        <ele>957</ele>
        <time>2020-01-04T21:34:48Z</time>
      </trkpt>
      <trkpt lat="44.3763" lon="3.49567">
        <ele>958</ele>
        <time>2020-01-04T21:34:54Z</time>
      </trkpt>
      <trkpt lat="44.37624" lon="3.49573">
        <ele>958</ele>
        <time>2020-01-04T21:34:56Z</time>
      </trkpt>
      <trkpt lat="44.3758" lon="3.49601">
        <ele>958</ele>
        <time>2020-01-04T21:35:07Z</time>
      </trkpt>
      <trkpt lat="44.37538" lon="3.49633">
        <ele>957</ele>
        <time>2020-01-04T21:35:18Z</time>
      </trkpt>
      <trkpt lat="44.37525" lon="3.49639">
        <ele>956</ele>
        <time>2020-01-04T21:35:21Z</time>
      </trkpt>
      <trkpt lat="44.37505" lon="3.49656">
        <ele>955</ele>
        <time>2020-01-04T21:35:27Z</time>
      </trkpt>
      <trkpt lat="44.37479" lon="3.49661">
        <ele>954</ele>
        <time>2020-01-04T21:35:33Z</time>
      </trkpt>
      <trkpt lat="44.37462" lon="3.49659">
        <ele>953</ele>
        <time>2020-01-04T21:35:37Z</time>
      </trkpt>
      <trkpt lat="44.37441" lon="3.49662">
        <ele>952</ele>
        <time>2020-01-04T21:35:42Z</time>
      </trkpt>
      <trkpt lat="44.37422" lon="3.49671">
        <ele>951</ele>
        <time>2020-01-04T21:35:46Z</time>
      </trkpt>
      <trkpt lat="44.37399" lon="3.49686">
        <ele>950</ele>
        <time>2020-01-04T21:35:52Z</time>
      </trkpt>
      <trkpt lat="44.37295" lon="3.49732">
        <ele>950</ele>
        <time>2020-01-04T21:36:18Z</time>
      </trkpt>
      <trkpt lat="44.37257" lon="3.49745">
        <ele>951</ele>
        <time>2020-01-04T21:36:27Z</time>
      </trkpt>
      <trkpt lat="44.37225" lon="3.49753">
        <ele>951</ele>
        <time>2020-01-04T21:36:35Z</time>
      </trkpt>
      <trkpt lat="44.37176" lon="3.49771">
        <ele>951</ele>
        <time>2020-01-04T21:36:46Z</time>
      </trkpt>
      <trkpt lat="44.37131" lon="3.49811">
        <ele>953</ele>
        <time>2020-01-04T21:36:59Z</time>
      </trkpt>
      <trkpt lat="44.37084" lon="3.49847">
        <ele>955</ele>
        <time>2020-01-04T21:37:11Z</time>
      </trkpt>
      <trkpt lat="44.37066" lon="3.49853">
        <ele>957</ele>
        <time>2020-01-04T21:37:16Z</time>
      </trkpt>
      <trkpt lat="44.36995" lon="3.49855">
        <ele>962</ele>
        <time>2020-01-04T21:37:32Z</time>
      </trkpt>
      <trkpt lat="44.36951" lon="3.49859">
        <ele>964</ele>
        <time>2020-01-04T21:37:43Z</time>
      </trkpt>
      <trkpt lat="44.36925" lon="3.49855">
        <ele>965</ele>
        <time>2020-01-04T21:37:49Z</time>
      </trkpt>
      <trkpt lat="44.36893" lon="3.49854">
        <ele>966</ele>
        <time>2020-01-04T21:37:56Z</time>
      </trkpt>
      <trkpt lat="44.36823" lon="3.49862">
        <ele>968</ele>
        <time>2020-01-04T21:38:13Z</time>
      </trkpt>
      <trkpt lat="44.36704" lon="3.49843">
        <ele>976</ele>
        <time>2020-01-04T21:38:41Z</time>
      </trkpt>
      <trkpt lat="44.36692" lon="3.49839">
        <ele>977</ele>
        <time>2020-01-04T21:38:43Z</time>
      </trkpt>
      <trkpt lat="44.36639" lon="3.49804">
        <ele>980</ele>
        <time>2020-01-04T21:38:57Z</time>
      </trkpt>
      <trkpt lat="44.36623" lon="3.49797">
        <ele>981</ele>
        <time>2020-01-04T21:39:01Z</time>
      </trkpt>
      <trkpt lat="44.36612" lon="3.49795">
        <ele>981</ele>
        <time>2020-01-04T21:39:04Z</time>
      </trkpt>
      <trkpt lat="44.36593" lon="3.49801">
        <ele>981</ele>
        <time>2020-01-04T21:39:08Z</time>
      </trkpt>
      <trkpt lat="44.36549" lon="3.49842">
        <ele>978</ele>
        <time>2020-01-04T21:39:21Z</time>
      </trkpt>
      <trkpt lat="44.36508" lon="3.49869">
        <ele>974</ele>
        <time>2020-01-04T21:39:31Z</time>
      </trkpt>
      <trkpt lat="44.36497" lon="3.49871">
        <ele>974</ele>
        <time>2020-01-04T21:39:34Z</time>
      </trkpt>
      <trkpt lat="44.36484" lon="3.4987">
        <ele>974</ele>
        <time>2020-01-04T21:39:37Z</time>
      </trkpt>
      <trkpt lat="44.36413" lon="3.49848">
        <ele>973</ele>
        <time>2020-01-04T21:39:54Z</time>
      </trkpt>
      <trkpt lat="44.36403" lon="3.49849">
        <ele>974</ele>
        <time>2020-01-04T21:39:56Z</time>
      </trkpt>
      <trkpt lat="44.36399" lon="3.49852">
        <ele>974</ele>
        <time>2020-01-04T21:39:57Z</time>
      </trkpt>
      <trkpt lat="44.3639" lon="3.49874">
        <ele>973</ele>
        <time>2020-01-04T21:40:01Z</time>
      </trkpt>
      <trkpt lat="44.36381" lon="3.49887">
        <ele>972</ele>
        <time>2020-01-04T21:40:04Z</time>
      </trkpt>
      <trkpt lat="44.36337" lon="3.49939">
        <ele>967</ele>
        <time>2020-01-04T21:40:18Z</time>
      </trkpt>
      <trkpt lat="44.36305" lon="3.49988">
        <ele>959</ele>
        <time>2020-01-04T21:40:29Z</time>
      </trkpt>
      <trkpt lat="44.36248" lon="3.50052">
        <ele>952</ele>
        <time>2020-01-04T21:40:46Z</time>
      </trkpt>
      <trkpt lat="44.36239" lon="3.50065">
        <ele>952</ele>
        <time>2020-01-04T21:40:49Z</time>
      </trkpt>
      <trkpt lat="44.36233" lon="3.50089">
        <ele>951</ele>
        <time>2020-01-04T21:40:53Z</time>
      </trkpt>
      <trkpt lat="44.36232" lon="3.5016">
        <ele>947</ele>
        <time>2020-01-04T21:41:05Z</time>
      </trkpt>
      <trkpt lat="44.36222" lon="3.50221">
        <ele>945</ele>
        <time>2020-01-04T21:41:16Z</time>
      </trkpt>
      <trkpt lat="44.36177" lon="3.50427">
        <ele>935</ele>
        <time>2020-01-04T21:41:52Z</time>
      </trkpt>
      <trkpt lat="44.36159" lon="3.5049">
        <ele>927</ele>
        <time>2020-01-04T21:42:03Z</time>
      </trkpt>
      <trkpt lat="44.36132" lon="3.50511">
        <ele>926</ele>
        <time>2020-01-04T21:42:10Z</time>
      </trkpt>
      <trkpt lat="44.36111" lon="3.50496">
        <ele>927</ele>
        <time>2020-01-04T21:42:16Z</time>
      </trkpt>
      <trkpt lat="44.36068" lon="3.50475">
        <ele>929</ele>
        <time>2020-01-04T21:42:26Z</time>
      </trkpt>
      <trkpt lat="44.36042" lon="3.50494">
        <ele>927</ele>
        <time>2020-01-04T21:42:33Z</time>
      </trkpt>
      <trkpt lat="44.36009" lon="3.50496">
        <ele>926</ele>
        <time>2020-01-04T21:42:41Z</time>
      </trkpt>
      <trkpt lat="44.35949" lon="3.50535">
        <ele>923</ele>
        <time>2020-01-04T21:42:56Z</time>
      </trkpt>
      <trkpt lat="44.35932" lon="3.50543">
        <ele>922</ele>
        <time>2020-01-04T21:43:00Z</time>
      </trkpt>
      <trkpt lat="44.35923" lon="3.50543">
        <ele>922</ele>
        <time>2020-01-04T21:43:03Z</time>
      </trkpt>
      <trkpt lat="44.35908" lon="3.50548">
        <ele>922</ele>
        <time>2020-01-04T21:43:06Z</time>
      </trkpt>
      <trkpt lat="44.35872" lon="3.50584">
        <ele>920</ele>
        <time>2020-01-04T21:43:16Z</time>
      </trkpt>
      <trkpt lat="44.35842" lon="3.50608">
        <ele>920</ele>
        <time>2020-01-04T21:43:25Z</time>
      </trkpt>
      <trkpt lat="44.3582" lon="3.50648">
        <ele>917</ele>
        <time>2020-01-04T21:43:33Z</time>
      </trkpt>
      <trkpt lat="44.35769" lon="3.50726">
        <ele>912</ele>
        <time>2020-01-04T21:43:51Z</time>
      </trkpt>
      <trkpt lat="44.35736" lon="3.50754">
        <ele>905</ele>
        <time>2020-01-04T21:44:00Z</time>
      </trkpt>
      <trkpt lat="44.35724" lon="3.50754">
        <ele>902</ele>
        <time>2020-01-04T21:44:02Z</time>
      </trkpt>
      <trkpt lat="44.35721" lon="3.50758">
        <ele>900</ele>
        <time>2020-01-04T21:44:03Z</time>
      </trkpt>
      <trkpt lat="44.35732" lon="3.50781">
        <ele>899</ele>
        <time>2020-01-04T21:44:08Z</time>
      </trkpt>
      <trkpt lat="44.35739" lon="3.50809">
        <ele>897</ele>
        <time>2020-01-04T21:44:13Z</time>
      </trkpt>
      <trkpt lat="44.35724" lon="3.50792">
        <ele>894</ele>
        <time>2020-01-04T21:44:17Z</time>
      </trkpt>
      <trkpt lat="44.35732" lon="3.50844">
        <ele>888</ele>
        <time>2020-01-04T21:44:26Z</time>
      </trkpt>
      <trkpt lat="44.35734" lon="3.50876">
        <ele>882</ele>
        <time>2020-01-04T21:44:32Z</time>
      </trkpt>
      <trkpt lat="44.35743" lon="3.50912">
        <ele>879</ele>
        <time>2020-01-04T21:44:38Z</time>
      </trkpt>
      <trkpt lat="44.35745" lon="3.50953">
        <ele>876</ele>
        <time>2020-01-04T21:44:45Z</time>
      </trkpt>
      <trkpt lat="44.35743" lon="3.50985">
        <ele>872</ele>
        <time>2020-01-04T21:44:50Z</time>
      </trkpt>
      <trkpt lat="44.35734" lon="3.5102">
        <ele>864</ele>
        <time>2020-01-04T21:44:56Z</time>
      </trkpt>
      <trkpt lat="44.35726" lon="3.5103">
        <ele>858</ele>
        <time>2020-01-04T21:44:59Z</time>
      </trkpt>
      <trkpt lat="44.35721" lon="3.51028">
        <ele>855</ele>
        <time>2020-01-04T21:45:00Z</time>
      </trkpt>
      <trkpt lat="44.35706" lon="3.51052">
        <ele>845</ele>
        <time>2020-01-04T21:45:06Z</time>
      </trkpt>
      <trkpt lat="44.35689" lon="3.51095">
        <ele>834</ele>
        <time>2020-01-04T21:45:14Z</time>
      </trkpt>
      <trkpt lat="44.35678" lon="3.51135">
        <ele>825</ele>
        <time>2020-01-04T21:45:21Z</time>
      </trkpt>
      <trkpt lat="44.35674" lon="3.51163">
        <ele>822</ele>
        <time>2020-01-04T21:45:26Z</time>
      </trkpt>
      <trkpt lat="44.35668" lon="3.51155">
        <ele>819</ele>
        <time>2020-01-04T21:45:28Z</time>
      </trkpt>
      <trkpt lat="44.35666" lon="3.51142">
        <ele>818</ele>
        <time>2020-01-04T21:45:30Z</time>
      </trkpt>
      <trkpt lat="44.35657" lon="3.51181">
        <ele>809</ele>
        <time>2020-01-04T21:45:37Z</time>
      </trkpt>
      <trkpt lat="44.35657" lon="3.51189">
        <ele>807</ele>
        <time>2020-01-04T21:45:38Z</time>
      </trkpt>
      <trkpt lat="44.35666" lon="3.51208">
        <ele>806</ele>
        <time>2020-01-04T21:45:42Z</time>
      </trkpt>
      <trkpt lat="44.35666" lon="3.51217">
        <ele>803</ele>
        <time>2020-01-04T21:45:43Z</time>
      </trkpt>
      <trkpt lat="44.35661" lon="3.51221">
        <ele>800</ele>
        <time>2020-01-04T21:45:45Z</time>
      </trkpt>
      <trkpt lat="44.35644" lon="3.51213">
        <ele>795</ele>
        <time>2020-01-04T21:45:49Z</time>
      </trkpt>
      <trkpt lat="44.35636" lon="3.51204">
        <ele>793</ele>
        <time>2020-01-04T21:45:51Z</time>
      </trkpt>
      <trkpt lat="44.35623" lon="3.51174">
        <ele>791</ele>
        <time>2020-01-04T21:45:57Z</time>
      </trkpt>
      <trkpt lat="44.35618" lon="3.51176">
        <ele>788</ele>
        <time>2020-01-04T21:45:58Z</time>
      </trkpt>
      <trkpt lat="44.35614" lon="3.51204">
        <ele>783</ele>
        <time>2020-01-04T21:46:03Z</time>
      </trkpt>
      <trkpt lat="44.35616" lon="3.51266">
        <ele>773</ele>
        <time>2020-01-04T21:46:13Z</time>
      </trkpt>
      <trkpt lat="44.3561" lon="3.51266">
        <ele>772</ele>
        <time>2020-01-04T21:46:15Z</time>
      </trkpt>
      <trkpt lat="44.35599" lon="3.51258">
        <ele>771</ele>
        <time>2020-01-04T21:46:18Z</time>
      </trkpt>
      <trkpt lat="44.35588" lon="3.51234">
        <ele>770</ele>
        <time>2020-01-04T21:46:23Z</time>
      </trkpt>
      <trkpt lat="44.35575" lon="3.51288">
        <ele>754</ele>
        <time>2020-01-04T21:46:32Z</time>
      </trkpt>
      <trkpt lat="44.35578" lon="3.5132">
        <ele>748</ele>
        <time>2020-01-04T21:46:37Z</time>
      </trkpt>
      <trkpt lat="44.35582" lon="3.51329">
        <ele>748</ele>
        <time>2020-01-04T21:46:39Z</time>
      </trkpt>
      <trkpt lat="44.35575" lon="3.51333">
        <ele>744</ele>
        <time>2020-01-04T21:46:41Z</time>
      </trkpt>
      <trkpt lat="44.35563" lon="3.51326">
        <ele>741</ele>
        <time>2020-01-04T21:46:44Z</time>
      </trkpt>
      <trkpt lat="44.35552" lon="3.51311">
        <ele>739</ele>
        <time>2020-01-04T21:46:48Z</time>
      </trkpt>
      <trkpt lat="44.35545" lon="3.51284">
        <ele>740</ele>
        <time>2020-01-04T21:46:52Z</time>
      </trkpt>
      <trkpt lat="44.35541" lon="3.51288">
        <ele>738</ele>
        <time>2020-01-04T21:46:54Z</time>
      </trkpt>
      <trkpt lat="44.35533" lon="3.51329">
        <ele>729</ele>
        <time>2020-01-04T21:47:01Z</time>
      </trkpt>
      <trkpt lat="44.35537" lon="3.51352">
        <ele>726</ele>
        <time>2020-01-04T21:47:05Z</time>
      </trkpt>
      <trkpt lat="44.35545" lon="3.51372">
        <ele>722</ele>
        <time>2020-01-04T21:47:08Z</time>
      </trkpt>
      <trkpt lat="44.3556" lon="3.51387">
        <ele>721</ele>
        <time>2020-01-04T21:47:13Z</time>
      </trkpt>
      <trkpt lat="44.35582" lon="3.51395">
        <ele>722</ele>
        <time>2020-01-04T21:47:18Z</time>
      </trkpt>
      <trkpt lat="44.35595" lon="3.51404">
        <ele>719</ele>
        <time>2020-01-04T21:47:21Z</time>
      </trkpt>
      <trkpt lat="44.35631" lon="3.51417">
        <ele>716</ele>
        <time>2020-01-04T21:47:30Z</time>
      </trkpt>
      <trkpt lat="44.35644" lon="3.51425">
        <ele>714</ele>
        <time>2020-01-04T21:47:33Z</time>
      </trkpt>
      <trkpt lat="44.35659" lon="3.51429">
        <ele>713</ele>
        <time>2020-01-04T21:47:37Z</time>
      </trkpt>
      <trkpt lat="44.35681" lon="3.51442">
        <ele>711</ele>
        <time>2020-01-04T21:47:43Z</time>
      </trkpt>
      <trkpt lat="44.35677" lon="3.5144">
        <ele>711</ele>
        <time>2020-01-04T21:47:44Z</time>
      </trkpt>
      <trkpt lat="44.35681" lon="3.51442">
        <ele>711</ele>
        <time>2020-01-04T21:47:45Z</time>
      </trkpt>
      <trkpt lat="44.35689" lon="3.51462">
        <ele>704</ele>
        <time>2020-01-04T21:47:48Z</time>
      </trkpt>
      <trkpt lat="44.35751" lon="3.51539">
        <ele>687</ele>
        <time>2020-01-04T21:48:08Z</time>
      </trkpt>
      <trkpt lat="44.35781" lon="3.51586">
        <ele>678</ele>
        <time>2020-01-04T21:48:18Z</time>
      </trkpt>
      <trkpt lat="44.35801" lon="3.51603">
        <ele>678</ele>
        <time>2020-01-04T21:48:24Z</time>
      </trkpt>
      <trkpt lat="44.35844" lon="3.51661">
        <ele>672</ele>
        <time>2020-01-04T21:48:38Z</time>
      </trkpt>
      <trkpt lat="44.35857" lon="3.51685">
        <ele>671</ele>
        <time>2020-01-04T21:48:43Z</time>
      </trkpt>
      <trkpt lat="44.35833" lon="3.51676">
        <ele>662</ele>
        <time>2020-01-04T21:48:48Z</time>
      </trkpt>
      <trkpt lat="44.35831" lon="3.51683">
        <ele>659</ele>
        <time>2020-01-04T21:48:50Z</time>
      </trkpt>
      <trkpt lat="44.35846" lon="3.51715">
        <ele>656</ele>
        <time>2020-01-04T21:48:56Z</time>
      </trkpt>
      <trkpt lat="44.35846" lon="3.51728">
        <ele>652</ele>
        <time>2020-01-04T21:48:58Z</time>
      </trkpt>
      <trkpt lat="44.3585" lon="3.51736">
        <ele>652</ele>
        <time>2020-01-04T21:49:00Z</time>
      </trkpt>
      <trkpt lat="44.35852" lon="3.51758">
        <ele>646</ele>
        <time>2020-01-04T21:49:04Z</time>
      </trkpt>
      <trkpt lat="44.35857" lon="3.51768">
        <ele>645</ele>
        <time>2020-01-04T21:49:06Z</time>
      </trkpt>
      <trkpt lat="44.35852" lon="3.51771">
        <ele>642</ele>
        <time>2020-01-04T21:49:07Z</time>
      </trkpt>
      <trkpt lat="44.35837" lon="3.51749">
        <ele>642</ele>
        <time>2020-01-04T21:49:12Z</time>
      </trkpt>
      <trkpt lat="44.35846" lon="3.51814">
        <ele>627</ele>
        <time>2020-01-04T21:49:23Z</time>
      </trkpt>
      <trkpt lat="44.35842" lon="3.51814">
        <ele>625</ele>
        <time>2020-01-04T21:49:24Z</time>
      </trkpt>
      <trkpt lat="44.35835" lon="3.51796">
        <ele>627</ele>
        <time>2020-01-04T21:49:27Z</time>
      </trkpt>
      <trkpt lat="44.35829" lon="3.5179">
        <ele>627</ele>
        <time>2020-01-04T21:49:29Z</time>
      </trkpt>
      <trkpt lat="44.35805" lon="3.51779">
        <ele>622</ele>
        <time>2020-01-04T21:49:35Z</time>
      </trkpt>
      <trkpt lat="44.3579" lon="3.51779">
        <ele>617</ele>
        <time>2020-01-04T21:49:39Z</time>
      </trkpt>
      <trkpt lat="44.35766" lon="3.51794">
        <ele>605</ele>
        <time>2020-01-04T21:49:45Z</time>
      </trkpt>
      <trkpt lat="44.35756" lon="3.51796">
        <ele>601</ele>
        <time>2020-01-04T21:49:47Z</time>
      </trkpt>
      <trkpt lat="44.35749" lon="3.51805">
        <ele>597</ele>
        <time>2020-01-04T21:49:49Z</time>
      </trkpt>
      <trkpt lat="44.35739" lon="3.51809">
        <ele>592</ele>
        <time>2020-01-04T21:49:52Z</time>
      </trkpt>
      <trkpt lat="44.35715" lon="3.51811">
        <ele>584</ele>
        <time>2020-01-04T21:49:57Z</time>
      </trkpt>
      <trkpt lat="44.357" lon="3.51805">
        <ele>581</ele>
        <time>2020-01-04T21:50:01Z</time>
      </trkpt>
      <trkpt lat="44.35696" lon="3.51807">
        <ele>579</ele>
        <time>2020-01-04T21:50:02Z</time>
      </trkpt>
      <trkpt lat="44.35694" lon="3.51814">
        <ele>576</ele>
        <time>2020-01-04T21:50:03Z</time>
      </trkpt>
      <trkpt lat="44.35698" lon="3.5182">
        <ele>576</ele>
        <time>2020-01-04T21:50:05Z</time>
      </trkpt>
      <trkpt lat="44.35696" lon="3.51824">
        <ele>574</ele>
        <time>2020-01-04T21:50:05Z</time>
      </trkpt>
      <trkpt lat="44.35672" lon="3.5182">
        <ele>568</ele>
        <time>2020-01-04T21:50:11Z</time>
      </trkpt>
      <trkpt lat="44.35663" lon="3.51811">
        <ele>567</ele>
        <time>2020-01-04T21:50:14Z</time>
      </trkpt>
      <trkpt lat="44.35651" lon="3.51807">
        <ele>564</ele>
        <time>2020-01-04T21:50:16Z</time>
      </trkpt>
      <trkpt lat="44.35621" lon="3.51809">
        <ele>553</ele>
        <time>2020-01-04T21:50:24Z</time>
      </trkpt>
      <trkpt lat="44.35616" lon="3.51805">
        <ele>552</ele>
        <time>2020-01-04T21:50:25Z</time>
      </trkpt>
      <trkpt lat="44.35614" lon="3.51816">
        <ele>548</ele>
        <time>2020-01-04T21:50:27Z</time>
      </trkpt>
      <trkpt lat="44.35625" lon="3.51829">
        <ele>547</ele>
        <time>2020-01-04T21:50:30Z</time>
      </trkpt>
      <trkpt lat="44.35625" lon="3.51833">
        <ele>546</ele>
        <time>2020-01-04T21:50:31Z</time>
      </trkpt>
      <trkpt lat="44.35593" lon="3.51835">
        <ele>533</ele>
        <time>2020-01-04T21:50:38Z</time>
      </trkpt>
      <trkpt lat="44.35619" lon="3.51835">
        <ele>543</ele>
        <time>2020-01-04T21:50:44Z</time>
      </trkpt>
      <trkpt lat="44.35593" lon="3.51835">
        <ele>533</ele>
        <time>2020-01-04T21:50:50Z</time>
      </trkpt>
      <trkpt lat="44.35563" lon="3.51826">
        <ele>528</ele>
        <time>2020-01-04T21:50:58Z</time>
      </trkpt>
      <trkpt lat="44.35558" lon="3.51829">
        <ele>525</ele>
        <time>2020-01-04T21:50:59Z</time>
      </trkpt>
      <trkpt lat="44.35549" lon="3.51846">
        <ele>519</ele>
        <time>2020-01-04T21:51:02Z</time>
      </trkpt>
      <trkpt lat="44.35522" lon="3.51846">
        <ele>513</ele>
        <time>2020-01-04T21:51:09Z</time>
      </trkpt>
      <trkpt lat="44.3576" lon="3.52067">
        <ele>519</ele>
        <time>2020-01-04T21:52:15Z</time>
      </trkpt>
      <trkpt lat="44.35889" lon="3.52147">
        <ele>514</ele>
        <time>2020-01-04T21:52:48Z</time>
      </trkpt>
      <trkpt lat="44.36056" lon="3.52173">
        <ele>511</ele>
        <time>2020-01-04T21:53:28Z</time>
      </trkpt>
      <trkpt lat="44.36126" lon="3.52215">
        <ele>509</ele>
        <time>2020-01-04T21:53:45Z</time>
      </trkpt>
      <trkpt lat="44.36198" lon="3.5221">
        <ele>514</ele>
        <time>2020-01-04T21:54:02Z</time>
      </trkpt>
      <trkpt lat="44.36275" lon="3.52241">
        <ele>507</ele>
        <time>2020-01-04T21:54:21Z</time>
      </trkpt>
      <trkpt lat="44.36452" lon="3.52192">
        <ele>513</ele>
        <time>2020-01-04T21:55:03Z</time>
      </trkpt>
      <trkpt lat="44.36565" lon="3.52197">
        <ele>508</ele>
        <time>2020-01-04T21:55:29Z</time>
      </trkpt>
      <trkpt lat="44.36763" lon="3.52085">
        <ele>514</ele>
        <time>2020-01-04T21:56:19Z</time>
      </trkpt>
      <trkpt lat="44.36824" lon="3.52072">
        <ele>514</ele>
        <time>2020-01-04T21:56:34Z</time>
      </trkpt>
      <trkpt lat="44.36959" lon="3.51978">
        <ele>522</ele>
        <time>2020-01-04T21:57:09Z</time>
      </trkpt>
      <trkpt lat="44.37113" lon="3.51911">
        <ele>526</ele>
        <time>2020-01-04T21:57:47Z</time>
      </trkpt>
      <trkpt lat="44.37244" lon="3.51908">
        <ele>519</ele>
        <time>2020-01-04T21:58:17Z</time>
      </trkpt>
      <trkpt lat="44.37399" lon="3.51989">
        <ele>520</ele>
        <time>2020-01-04T21:58:56Z</time>
      </trkpt>
      <trkpt lat="44.3742" lon="3.52002">
        <ele>517</ele>
        <time>2020-01-04T21:59:01Z</time>
      </trkpt>
      <trkpt lat="44.37494" lon="3.52023">
        <ele>526</ele>
        <time>2020-01-04T21:59:19Z</time>
      </trkpt>
      <trkpt lat="44.37605" lon="3.52119">
        <ele>514</ele>
        <time>2020-01-04T21:59:49Z</time>
      </trkpt>
      <trkpt lat="44.37657" lon="3.52116">
        <ele>518</ele>
        <time>2020-01-04T22:00:01Z</time>
      </trkpt>
      <trkpt lat="44.37682" lon="3.52166">
        <ele>513</ele>
        <time>2020-01-04T22:00:12Z</time>
      </trkpt>
      <trkpt lat="44.37671" lon="3.5248">
        <ele>516</ele>
        <time>2020-01-04T22:01:04Z</time>
      </trkpt>
      <trkpt lat="44.37605" lon="3.52623">
        <ele>514</ele>
        <time>2020-01-04T22:01:33Z</time>
      </trkpt>
      <trkpt lat="44.37565" lon="3.52766">
        <ele>515</ele>
        <time>2020-01-04T22:01:58Z</time>
      </trkpt>
      <trkpt lat="44.3747" lon="3.52737">
        <ele>509</ele>
        <time>2020-01-04T22:02:21Z</time>
      </trkpt>
      <trkpt lat="44.37411" lon="3.52587">
        <ele>503</ele>
        <time>2020-01-04T22:02:49Z</time>
      </trkpt>
      <trkpt lat="44.37326" lon="3.52688">
        <ele>505</ele>
        <time>2020-01-04T22:03:16Z</time>
      </trkpt>
      <trkpt lat="44.3726" lon="3.52735">
        <ele>506</ele>
        <time>2020-01-04T22:03:33Z</time>
      </trkpt>
      <trkpt lat="44.37256" lon="3.52763">
        <ele>506</ele>
        <time>2020-01-04T22:03:38Z</time>
      </trkpt>
      <trkpt lat="44.37231" lon="3.52802">
        <ele>506</ele>
        <time>2020-01-04T22:03:46Z</time>
      </trkpt>
      <trkpt lat="44.37258" lon="3.5288">
        <ele>508</ele>
        <time>2020-01-04T22:04:01Z</time>
      </trkpt>
      <trkpt lat="44.37222" lon="3.53033">
        <ele>509</ele>
        <time>2020-01-04T22:04:28Z</time>
      </trkpt>
      <trkpt lat="44.372" lon="3.53145">
        <ele>511</ele>
        <time>2020-01-04T22:04:47Z</time>
      </trkpt>
      <trkpt lat="44.37204" lon="3.53189">
        <ele>513</ele>
        <time>2020-01-04T22:04:54Z</time>
      </trkpt>
      <trkpt lat="44.372" lon="3.53253">
        <ele>516</ele>
        <time>2020-01-04T22:05:05Z</time>
      </trkpt>
      <trkpt lat="44.37204" lon="3.53262">
        <ele>516</ele>
        <time>2020-01-04T22:05:07Z</time>
      </trkpt>
      <trkpt lat="44.37218" lon="3.53273">
        <ele>517</ele>
        <time>2020-01-04T22:05:11Z</time>
      </trkpt>
      <trkpt lat="44.37199" lon="3.53332">
        <ele>520</ele>
        <time>2020-01-04T22:05:22Z</time>
      </trkpt>
      <trkpt lat="44.37156" lon="3.53396">
        <ele>521</ele>
        <time>2020-01-04T22:05:36Z</time>
      </trkpt>
      <trkpt lat="44.37082" lon="3.53497">
        <ele>523</ele>
        <time>2020-01-04T22:06:00Z</time>
      </trkpt>
      <trkpt lat="44.37025" lon="3.53765">
        <ele>527</ele>
        <time>2020-01-04T22:06:47Z</time>
      </trkpt>
      <trkpt lat="44.37036" lon="3.5379">
        <ele>527</ele>
        <time>2020-01-04T22:06:52Z</time>
      </trkpt>
      <trkpt lat="44.37059" lon="3.53825">
        <ele>528</ele>
        <time>2020-01-04T22:07:00Z</time>
      </trkpt>
      <trkpt lat="44.3709" lon="3.53911">
        <ele>524</ele>
        <time>2020-01-04T22:07:16Z</time>
      </trkpt>
      <trkpt lat="44.37108" lon="3.53925">
        <ele>525</ele>
        <time>2020-01-04T22:07:21Z</time>
      </trkpt>
      <trkpt lat="44.37199" lon="3.53972">
        <ele>529</ele>
        <time>2020-01-04T22:07:43Z</time>
      </trkpt>
      <trkpt lat="44.3722" lon="3.53986">
        <ele>529</ele>
        <time>2020-01-04T22:07:49Z</time>
      </trkpt>
      <trkpt lat="44.37344" lon="3.54081">
        <ele>529</ele>
        <time>2020-01-04T22:08:22Z</time>
      </trkpt>
      <trkpt lat="44.37343" lon="3.54084">
        <ele>527</ele>
        <time>2020-01-04T22:08:22Z</time>
      </trkpt>
      <trkpt lat="44.37346" lon="3.54092">
        <ele>527</ele>
        <time>2020-01-04T22:08:24Z</time>
      </trkpt>
      <trkpt lat="44.37426" lon="3.54189">
        <ele>521</ele>
        <time>2020-01-04T22:08:49Z</time>
      </trkpt>
      <trkpt lat="44.37468" lon="3.54255">
        <ele>518</ele>
        <time>2020-01-04T22:09:03Z</time>
      </trkpt>
      <trkpt lat="44.37486" lon="3.54292">
        <ele>516</ele>
        <time>2020-01-04T22:09:11Z</time>
      </trkpt>
      <trkpt lat="44.37575" lon="3.54505">
        <ele>513</ele>
        <time>2020-01-04T22:09:52Z</time>
      </trkpt>
      <trkpt lat="44.37659" lon="3.54697">
        <ele>515</ele>
        <time>2020-01-04T22:10:30Z</time>
      </trkpt>
      <trkpt lat="44.37687" lon="3.54808">
        <ele>516</ele>
        <time>2020-01-04T22:10:49Z</time>
      </trkpt>
      <trkpt lat="44.37713" lon="3.54927">
        <ele>518</ele>
        <time>2020-01-04T22:11:10Z</time>
      </trkpt>
      <trkpt lat="44.37728" lon="3.54952">
        <ele>519</ele>
        <time>2020-01-04T22:11:15Z</time>
      </trkpt>
      <trkpt lat="44.37655" lon="3.55133">
        <ele>530</ele>
        <time>2020-01-04T22:11:50Z</time>
      </trkpt>
      <trkpt lat="44.37542" lon="3.55312">
        <ele>531</ele>
        <time>2020-01-04T22:12:30Z</time>
      </trkpt>
      <trkpt lat="44.37507" lon="3.55357">
        <ele>529</ele>
        <time>2020-01-04T22:12:41Z</time>
      </trkpt>
      <trkpt lat="44.37366" lon="3.55488">
        <ele>530</ele>
        <time>2020-01-04T22:13:21Z</time>
      </trkpt>
      <trkpt lat="44.37302" lon="3.55531">
        <ele>529</ele>
        <time>2020-01-04T22:13:37Z</time>
      </trkpt>
      <trkpt lat="44.3724" lon="3.55566">
        <ele>529</ele>
        <time>2020-01-04T22:13:53Z</time>
      </trkpt>
      <trkpt lat="44.37219" lon="3.55575">
        <ele>528</ele>
        <time>2020-01-04T22:13:58Z</time>
      </trkpt>
      <trkpt lat="44.37131" lon="3.55604">
        <ele>524</ele>
        <time>2020-01-04T22:14:19Z</time>
      </trkpt>
      <trkpt lat="44.37119" lon="3.55607">
        <ele>523</ele>
        <time>2020-01-04T22:14:22Z</time>
      </trkpt>
      <trkpt lat="44.37111" lon="3.55604">
        <ele>522</ele>
        <time>2020-01-04T22:14:24Z</time>
      </trkpt>
      <trkpt lat="44.37105" lon="3.55605">
        <ele>521</ele>
        <time>2020-01-04T22:14:25Z</time>
      </trkpt>
      <trkpt lat="44.37094" lon="3.55615">
        <ele>523</ele>
        <time>2020-01-04T22:14:28Z</time>
      </trkpt>
      <trkpt lat="44.37051" lon="3.55629">
        <ele>522</ele>
        <time>2020-01-04T22:14:39Z</time>
      </trkpt>
      <trkpt lat="44.36993" lon="3.55643">
        <ele>519</ele>
        <time>2020-01-04T22:14:52Z</time>
      </trkpt>
      <trkpt lat="44.36892" lon="3.55672">
        <ele>520</ele>
        <time>2020-01-04T22:15:16Z</time>
      </trkpt>
      <trkpt lat="44.36815" lon="3.55674">
        <ele>521</ele>
        <time>2020-01-04T22:15:34Z</time>
      </trkpt>
      <trkpt lat="44.36733" lon="3.55686">
        <ele>524</ele>
        <time>2020-01-04T22:15:54Z</time>
      </trkpt>
      <trkpt lat="44.36716" lon="3.5568">
        <ele>523</ele>
        <time>2020-01-04T22:15:58Z</time>
      </trkpt>
      <trkpt lat="44.36708" lon="3.55683">
        <ele>524</ele>
        <time>2020-01-04T22:16:00Z</time>
      </trkpt>
      <trkpt lat="44.36704" lon="3.5569">
        <ele>525</ele>
        <time>2020-01-04T22:16:01Z</time>
      </trkpt>
      <trkpt lat="44.36647" lon="3.55695">
        <ele>526</ele>
        <time>2020-01-04T22:16:15Z</time>
      </trkpt>
      <trkpt lat="44.36577" lon="3.55717">
        <ele>533</ele>
        <time>2020-01-04T22:16:31Z</time>
      </trkpt>
      <trkpt lat="44.36531" lon="3.55714">
        <ele>534</ele>
        <time>2020-01-04T22:16:42Z</time>
      </trkpt>
      <trkpt lat="44.36504" lon="3.55715">
        <ele>535</ele>
        <time>2020-01-04T22:16:48Z</time>
      </trkpt>
      <trkpt lat="44.36453" lon="3.55723">
        <ele>536</ele>
        <time>2020-01-04T22:17:00Z</time>
      </trkpt>
      <trkpt lat="44.36411" lon="3.55738">
        <ele>538</ele>
        <time>2020-01-04T22:17:10Z</time>
      </trkpt>
      <trkpt lat="44.36355" lon="3.55767">
        <ele>539</ele>
        <time>2020-01-04T22:17:24Z</time>
      </trkpt>
      <trkpt lat="44.36298" lon="3.55814">
        <ele>541</ele>
        <time>2020-01-04T22:17:40Z</time>
      </trkpt>
      <trkpt lat="44.3627" lon="3.55844">
        <ele>541</ele>
        <time>2020-01-04T22:17:48Z</time>
      </trkpt>
      <trkpt lat="44.36226" lon="3.55901">
        <ele>543</ele>
        <time>2020-01-04T22:18:02Z</time>
      </trkpt>
      <trkpt lat="44.3621" lon="3.55931">
        <ele>543</ele>
        <time>2020-01-04T22:18:08Z</time>
      </trkpt>
      <trkpt lat="44.3619" lon="3.55983">
        <ele>542</ele>
        <time>2020-01-04T22:18:18Z</time>
      </trkpt>
      <trkpt lat="44.36186" lon="3.56013">
        <ele>542</ele>
        <time>2020-01-04T22:18:23Z</time>
      </trkpt>
      <trkpt lat="44.36193" lon="3.5605">
        <ele>543</ele>
        <time>2020-01-04T22:18:30Z</time>
      </trkpt>
      <trkpt lat="44.36215" lon="3.56122">
        <ele>550</ele>
        <time>2020-01-04T22:18:43Z</time>
      </trkpt>
      <trkpt lat="44.36259" lon="3.56247">
        <ele>551</ele>
        <time>2020-01-04T22:19:06Z</time>
      </trkpt>
      <trkpt lat="44.36271" lon="3.56289">
        <ele>553</ele>
        <time>2020-01-04T22:19:14Z</time>
      </trkpt>
      <trkpt lat="44.36278" lon="3.56353">
        <ele>553</ele>
        <time>2020-01-04T22:19:24Z</time>
      </trkpt>
      <trkpt lat="44.3628" lon="3.56441">
        <ele>554</ele>
        <time>2020-01-04T22:19:39Z</time>
      </trkpt>
      <trkpt lat="44.36286" lon="3.56504">
        <ele>557</ele>
        <time>2020-01-04T22:19:50Z</time>
      </trkpt>
      <trkpt lat="44.36286" lon="3.56561">
        <ele>557</ele>
        <time>2020-01-04T22:19:59Z</time>
      </trkpt>
      <trkpt lat="44.36271" lon="3.56622">
        <ele>555</ele>
        <time>2020-01-04T22:20:10Z</time>
      </trkpt>
      <trkpt lat="44.36271" lon="3.56629">
        <ele>556</ele>
        <time>2020-01-04T22:20:11Z</time>
      </trkpt>
      <trkpt lat="44.36229" lon="3.56723">
        <ele>560</ele>
        <time>2020-01-04T22:20:30Z</time>
      </trkpt>
      <trkpt lat="44.36213" lon="3.56756">
        <ele>564</ele>
        <time>2020-01-04T22:20:36Z</time>
      </trkpt>
      <trkpt lat="44.36204" lon="3.56769">
        <ele>566</ele>
        <time>2020-01-04T22:20:39Z</time>
      </trkpt>
      <trkpt lat="44.36176" lon="3.56798">
        <ele>572</ele>
        <time>2020-01-04T22:20:48Z</time>
      </trkpt>
      <trkpt lat="44.36115" lon="3.56844">
        <ele>576</ele>
        <time>2020-01-04T22:21:04Z</time>
      </trkpt>
      <trkpt lat="44.36065" lon="3.56871">
        <ele>579</ele>
        <time>2020-01-04T22:21:16Z</time>
      </trkpt>
      <trkpt lat="44.36041" lon="3.5688">
        <ele>581</ele>
        <time>2020-01-04T22:21:22Z</time>
      </trkpt>
      <trkpt lat="44.36001" lon="3.56887">
        <ele>578</ele>
        <time>2020-01-04T22:21:31Z</time>
      </trkpt>
      <trkpt lat="44.3597" lon="3.56885">
        <ele>578</ele>
        <time>2020-01-04T22:21:39Z</time>
      </trkpt>
      <trkpt lat="44.35857" lon="3.56863">
        <ele>575</ele>
        <time>2020-01-04T22:22:05Z</time>
      </trkpt>
      <trkpt lat="44.35835" lon="3.56861">
        <ele>575</ele>
        <time>2020-01-04T22:22:10Z</time>
      </trkpt>
      <trkpt lat="44.35816" lon="3.56864">
        <ele>574</ele>
        <time>2020-01-04T22:22:15Z</time>
      </trkpt>
      <trkpt lat="44.35799" lon="3.56872">
        <ele>572</ele>
        <time>2020-01-04T22:22:19Z</time>
      </trkpt>
      <trkpt lat="44.35782" lon="3.56888">
        <ele>572</ele>
        <time>2020-01-04T22:22:24Z</time>
      </trkpt>
      <trkpt lat="44.3577" lon="3.56865">
        <ele>567</ele>
        <time>2020-01-04T22:22:29Z</time>
      </trkpt>
      <trkpt lat="44.35773" lon="3.56853">
        <ele>566</ele>
        <time>2020-01-04T22:22:31Z</time>
      </trkpt>
      <trkpt lat="44.35893" lon="3.56846">
        <ele>568</ele>
        <time>2020-01-04T22:22:59Z</time>
      </trkpt>
      <trkpt lat="44.35921" lon="3.56853">
        <ele>569</ele>
        <time>2020-01-04T22:23:05Z</time>
      </trkpt>
      <trkpt lat="44.35924" lon="3.56851">
        <ele>568</ele>
        <time>2020-01-04T22:23:06Z</time>
      </trkpt>
      <trkpt lat="44.35924" lon="3.56844">
        <ele>565</ele>
        <time>2020-01-04T22:23:07Z</time>
      </trkpt>
      <trkpt lat="44.35918" lon="3.56838">
        <ele>564</ele>
        <time>2020-01-04T22:23:09Z</time>
      </trkpt>
      <trkpt lat="44.3587" lon="3.5682">
        <ele>561</ele>
        <time>2020-01-04T22:23:21Z</time>
      </trkpt>
      <trkpt lat="44.35844" lon="3.56805">
        <ele>559</ele>
        <time>2020-01-04T22:23:27Z</time>
      </trkpt>
      <trkpt lat="44.35808" lon="3.56772">
        <ele>551</ele>
        <time>2020-01-04T22:23:37Z</time>
      </trkpt>
      <trkpt lat="44.35783" lon="3.56737">
        <ele>546</ele>
        <time>2020-01-04T22:23:46Z</time>
      </trkpt>
    </trkseg>
  </trk>
</gpx>